Observation data for Adrian on 08/14/2019      Previous  Date  Next       Current Mesonet Observations  Soil Data  Daily Summary Page  Observations in Plain Language
KAD1 140500Z 14012KT 23/17 A3022 RMK A01 T02300168  RH  068%=      5-min Rain = 0
KAD1 140501Z 14012KT 23/17 A3022 RMK A01 T02300169  RH  068%=      5-min Rain = 0
KAD1 140502Z 14012KT 23/17 A3022 RMK A01 T02300169  RH  068%=      5-min Rain = 0
KAD1 140503Z 14012KT 23/17 A3022 RMK A01 T02300169  RH  068%=      5-min Rain = 0
KAD1 140504Z 15012KT 23/17 A3022 RMK A01 T02290169  RH  069%=      5-min Rain = 0
KAD1 140505Z 15012KT 23/17 A3022 RMK A01 T02290169  RH  069%=      5-min Rain = 0
KAD1 140506Z 15012KT 23/17 A3022 RMK A01 T02290169  RH  069%=      5-min Rain = 0
KAD1 140507Z 15012KT 23/17 A3022 RMK A01 T02290169  RH  069%=      5-min Rain = 0
KAD1 140508Z 15012KT 23/17 A3022 RMK A01 T02290169  RH  069%=      5-min Rain = 0
KAD1 140509Z 15012KT 23/17 A3022 RMK A01 T02290169  RH  069%=      5-min Rain = 0
KAD1 140510Z 15012KT 23/17 A3022 RMK A01 T02280169  RH  069%=      5-min Rain = 0
KAD1 140526Z 15012KT 23/17 A3022 RMK A01 T02270170  RH  070%=      5-min Rain = 0
KAD1 140527Z 15012KT 23/17 A3022 RMK A01 T02260170  RH  070%=      5-min Rain = 0
KAD1 140528Z 15011KT 23/17 A3022 RMK A01 T02260170  RH  071%=      5-min Rain = 0
KAD1 140529Z 15012KT 23/17 A3022 RMK A01 T02260170  RH  071%=      5-min Rain = 0
KAD1 140530Z 15012KT 23/17 A3022 RMK A01 T02260170  RH  071%=      5-min Rain = 0
KAD1 140531Z 15013KT 23/17 A3022 RMK A01 T02250170  RH  071%=      5-min Rain = 0
KAD1 140532Z 15014KT 23/17 A3022 RMK A01 T02250170  RH  071%=      5-min Rain = 0
KAD1 140533Z 15013KT 23/17 A3022 RMK A01 T02250169  RH  071%=      5-min Rain = 0
KAD1 140534Z 15014KT 23/17 A3022 RMK A01 T02250170  RH  071%=      5-min Rain = 0
KAD1 140535Z 15012KT 23/17 A3022 RMK A01 T02250169  RH  071%=      5-min Rain = 0
KAD1 140536Z 15014KT 23/17 A3022 RMK A01 T02250170  RH  071%=      5-min Rain = 0
KAD1 140537Z 15013KT 23/17 A3022 RMK A01 T02250170  RH  071%=      5-min Rain = 0
KAD1 140538Z 15013KT 23/17 A3022 RMK A01 T02250170  RH  071%=      5-min Rain = 0
KAD1 140539Z 15014KT 23/17 A3022 RMK A01 T02250170  RH  071%=      5-min Rain = 0
KAD1 140540Z 15014KT 23/17 A3022 RMK A01 T02250170  RH  071%=      5-min Rain = 0
KAD1 140541Z 15014KT 23/17 A3022 RMK A01 T02260170  RH  071%=      5-min Rain = 0
KAD1 140542Z 15014KT 23/17 A3022 RMK A01 T02260170  RH  071%=      5-min Rain = 0
KAD1 140543Z 14013KT 23/17 A3022 RMK A01 T02260170  RH  071%=      5-min Rain = 0
KAD1 140544Z 15014KT 23/17 A3022 RMK A01 T02260170  RH  071%=      5-min Rain = 0
KAD1 140545Z 14014KT 23/17 A3022 RMK A01 T02260171  RH  071%=      5-min Rain = 0
KAD1 140546Z 15013KT 23/17 A3023 RMK A01 T02260171  RH  071%=      5-min Rain = 0
KAD1 140547Z 15013KT 23/17 A3023 RMK A01 T02260171  RH  071%=      5-min Rain = 0
KAD1 140548Z 14014KT 23/17 A3023 RMK A01 T02260171  RH  071%=      5-min Rain = 0
KAD1 140549Z 14015KT 23/17 A3023 RMK A01 T02260171  RH  071%=      5-min Rain = 0
KAD1 140550Z 14014KT 23/17 A3023 RMK A01 T02260171  RH  071%=      5-min Rain = 0
KAD1 140551Z 14014KT 23/17 A3023 RMK A01 T02260171  RH  071%=      5-min Rain = 0
KAD1 140552Z 14014KT 23/17 A3023 RMK A01 T02260172  RH  071%=      5-min Rain = 0
KAD1 140553Z 14014KT 23/17 A3023 RMK A01 T02260171  RH  071%=      5-min Rain = 0
KAD1 140554Z 14014KT 23/17 A3023 RMK A01 T02250171  RH  071%=      5-min Rain = 0
KAD1 140555Z 14013KT 23/17 A3023 RMK A01 T02250171  RH  072%=      5-min Rain = 0
KAD1 140556Z 14013KT 23/17 A3023 RMK A01 T02260172  RH  072%=      5-min Rain = 0
KAD1 140557Z 13012KT 23/17 A3024 RMK A01 T02250172  RH  072%=      5-min Rain = 0
KAD1 140558Z 13013KT 23/17 A3024 RMK A01 T02250172  RH  072%=      5-min Rain = 0
KAD1 140559Z 12014KT 23/17 A3024 RMK A01 T02250172  RH  072%=      5-min Rain = 0
KAD1 140600Z 12013KT 22/17 A3024 RMK A01 T02240172  RH  072%=      5-min Rain = 0
KAD1 140601Z 12014KT 22/17 A3024 RMK A01 T02240172  RH  072%=      5-min Rain = 0
KAD1 140602Z 12014KT 22/17 A3025 RMK A01 T02240172  RH  072%=      5-min Rain = 0
KAD1 140603Z 11014KT 22/17 A3025 RMK A01 T02240172  RH  072%=      5-min Rain = 0
KAD1 140604Z 11014KT 22/17 A3025 RMK A01 T02230172  RH  073%=      5-min Rain = 0
KAD1 140605Z 11013KT 22/17 A3025 RMK A01 T02230172  RH  073%=      5-min Rain = 0
KAD1 140606Z 10013KT 22/17 A3026 RMK A01 T02230173  RH  073%=      5-min Rain = 0
KAD1 140607Z 10013KT 22/17 A3026 RMK A01 T02220173  RH  074%=      5-min Rain = 0
KAD1 140608Z 10014KT 22/17 A3026 RMK A01 T02220173  RH  074%=      5-min Rain = 0
KAD1 140609Z 10013KT 22/17 A3026 RMK A01 T02210173  RH  074%=      5-min Rain = 0
KAD1 140610Z 09012KT 22/17 A3026 RMK A01 T02200173  RH  075%=      5-min Rain = 0
KAD1 140611Z 09012KT 22/17 A3026 RMK A01 T02190173  RH  075%=      5-min Rain = 0
KAD1 140612Z 09012KT 22/17 A3027 RMK A01 T02180173  RH  076%=      5-min Rain = 0
KAD1 140613Z 09012KT 22/17 A3027 RMK A01 T02170173  RH  076%=      5-min Rain = 0
KAD1 140614Z 09012KT 22/17 A3027 RMK A01 T02160173  RH  076%=      5-min Rain = 0
KAD1 140615Z 09012KT 22/17 A3027 RMK A01 T02160174  RH  077%=      5-min Rain = 0
KAD1 140616Z 09013KT 22/17 A3027 RMK A01 T02160174  RH  077%=      5-min Rain = 0
KAD1 140617Z 09013KT 22/17 A3027 RMK A01 T02160173  RH  077%=      5-min Rain = 0
KAD1 140618Z 09013KT 22/17 A3027 RMK A01 T02160173  RH  077%=      5-min Rain = 0
KAD1 140619Z 10012KT 22/17 A3027 RMK A01 T02170173  RH  076%=      5-min Rain = 0
KAD1 140620Z 09012KT 22/17 A3027 RMK A01 T02170173  RH  076%=      5-min Rain = 0
KAD1 140621Z 10013KT 22/17 A3027 RMK A01 T02170173  RH  076%=      5-min Rain = 0
KAD1 140622Z 10012KT 22/17 A3026 RMK A01 T02170173  RH  076%=      5-min Rain = 0
KAD1 140623Z 10012KT 22/17 A3026 RMK A01 T02170173  RH  076%=      5-min Rain = 0
KAD1 140624Z 10012KT 22/17 A3026 RMK A01 T02170173  RH  076%=      5-min Rain = 0
KAD1 140625Z 10012KT 22/17 A3026 RMK A01 T02170173  RH  076%=      5-min Rain = 0
KAD1 140626Z 10012KT 22/17 A3026 RMK A01 T02160173  RH  076%=      5-min Rain = 0
KAD1 140627Z 11012KT 22/17 A3026 RMK A01 T02160173  RH  076%=      5-min Rain = 0
KAD1 140628Z 11012KT 22/17 A3026 RMK A01 T02170173  RH  076%=      5-min Rain = 0
KAD1 140629Z 11012KT 22/17 A3026 RMK A01 T02160173  RH  076%=      5-min Rain = 0
KAD1 140630Z 10012KT 22/17 A3025 RMK A01 T02160173  RH  076%=      5-min Rain = 0
KAD1 140631Z 11012KT 22/17 A3025 RMK A01 T02170173  RH  076%=      5-min Rain = 0
KAD1 140632Z 11013KT 22/17 A3025 RMK A01 T02160173  RH  076%=      5-min Rain = 0
KAD1 140633Z 10014KT 22/17 A3025 RMK A01 T02160173  RH  076%=      5-min Rain = 0
KAD1 140634Z 10014KT 22/17 A3025 RMK A01 T02160173  RH  076%=      5-min Rain = 0
KAD1 140635Z 10013KT 22/17 A3025 RMK A01 T02160173  RH  076%=      5-min Rain = 0
KAD1 140636Z 10014KT 22/17 A3025 RMK A01 T02170173  RH  076%=      5-min Rain = 0
KAD1 140637Z 10013KT 22/17 A3025 RMK A01 T02170173  RH  076%=      5-min Rain = 0
KAD1 140638Z 10014KT 22/17 A3025 RMK A01 T02160173  RH  076%=      5-min Rain = 0
KAD1 140639Z 10014KT 22/17 A3025 RMK A01 T02170173  RH  076%=      5-min Rain = 0
KAD1 140640Z 10014KT 22/17 A3025 RMK A01 T02170173  RH  076%=      5-min Rain = 0
KAD1 140641Z 10015KT 22/17 A3025 RMK A01 T02170173  RH  076%=      5-min Rain = 0
KAD1 140642Z 10016KT 22/17 A3025 RMK A01 T02170173  RH  076%=      5-min Rain = 0
KAD1 140643Z 10014KT 22/17 A3025 RMK A01 T02170173  RH  076%=      5-min Rain = 0
KAD1 140644Z 10015KT 22/17 A3025 RMK A01 T02170173  RH  076%=      5-min Rain = 0
KAD1 140645Z 10015KT 22/17 A3025 RMK A01 T02160173  RH  076%=      5-min Rain = 0
KAD1 140646Z 10013KT 22/17 A3025 RMK A01 T02160173  RH  077%=      5-min Rain = 0
KAD1 140647Z 09014KT 22/17 A3025 RMK A01 T02160173  RH  077%=      5-min Rain = 0
KAD1 140648Z 10015KT 22/17 A3025 RMK A01 T02160173  RH  077%=      5-min Rain = 0
KAD1 140649Z 10015KT 22/17 A3025 RMK A01 T02160173  RH  077%=      5-min Rain = 0
KAD1 140650Z 10014KT 22/17 A3025 RMK A01 T02160173  RH  077%=      5-min Rain = 0
KAD1 140651Z 10015KT 22/17 A3025 RMK A01 T02160173  RH  077%=      5-min Rain = 0
KAD1 140652Z 11014KT 22/17 A3025 RMK A01 T02160173  RH  077%=      5-min Rain = 0
KAD1 140653Z 11016KT 22/17 A3024 RMK A01 T02150173  RH  077%=      5-min Rain = 0
KAD1 140654Z 11016KT 22/17 A3024 RMK A01 T02160173  RH  077%=      5-min Rain = 0
KAD1 140655Z 11015KT 22/17 A3024 RMK A01 T02150173  RH  077%=      5-min Rain = 0
KAD1 140656Z 11017KT 22/17 A3024 RMK A01 T02150173  RH  077%=      5-min Rain = 0
KAD1 140657Z 11015KT 22/17 A3024 RMK A01 T02150173  RH  077%=      5-min Rain = 0
KAD1 140658Z 11016KT 22/17 A3024 RMK A01 T02150174  RH  077%=      5-min Rain = 0
KAD1 140659Z 11015KT 22/17 A3024 RMK A01 T02150173  RH  077%=      5-min Rain = 0
KAD1 140700Z 11015KT 22/17 A3024 RMK A01 T02150174  RH  077%=      5-min Rain = 0
KAD1 140701Z 11015KT 21/17 A3024 RMK A01 T02140174  RH  077%=      5-min Rain = 0
KAD1 140702Z 11015KT 21/17 A3024 RMK A01 T02140173  RH  077%=      5-min Rain = 0
KAD1 140703Z 11014KT 21/17 A3024 RMK A01 T02140173  RH  077%=      5-min Rain = 0
KAD1 140704Z 11014KT 21/17 A3025 RMK A01 T02140173  RH  077%=      5-min Rain = 0
KAD1 140705Z 11013KT 21/17 A3025 RMK A01 T02140173  RH  078%=      5-min Rain = 0
KAD1 140706Z 11014KT 21/17 A3025 RMK A01 T02140174  RH  078%=      5-min Rain = 0
KAD1 140707Z 11014KT 21/17 A3025 RMK A01 T02140174  RH  078%=      5-min Rain = 0
KAD1 140708Z 11014KT 21/17 A3025 RMK A01 T02140173  RH  077%=      5-min Rain = 0
KAD1 140709Z 11013KT 21/17 A3025 RMK A01 T02140173  RH  077%=      5-min Rain = 0
KAD1 140710Z 11014KT 21/17 A3025 RMK A01 T02140173  RH  077%=      5-min Rain = 0
KAD1 140711Z 11014KT 22/17 A3025 RMK A01 T02150174  RH  077%=      5-min Rain = 0
KAD1 140712Z 11014KT 22/17 A3025 RMK A01 T02150173  RH  077%=      5-min Rain = 0
KAD1 140713Z 11015KT 22/17 A3025 RMK A01 T02150173  RH  077%=      5-min Rain = 0
KAD1 140714Z 12014KT 22/17 A3025 RMK A01 T02160173  RH  077%=      5-min Rain = 0
KAD1 140715Z 12014KT 22/17 A3025 RMK A01 T02160173  RH  076%=      5-min Rain = 0
KAD1 140716Z 11017KT 22/17 A3025 RMK A01 T02170173  RH  076%=      5-min Rain = 0
KAD1 140717Z 11019KT 22/17 A3024 RMK A01 T02180172  RH  075%=      5-min Rain = 0
KAD1 140718Z 11021KT 22/17 A3024 RMK A01 T02200172  RH  074%=      5-min Rain = 0
KAD1 140719Z 12021KT 22/17 A3024 RMK A01 T02220172  RH  073%=      5-min Rain = 0
KAD1 140720Z 12020KT 22/17 A3024 RMK A01 T02230171  RH  072%=      5-min Rain = 0
KAD1 140721Z 11019KT 22/17 A3024 RMK A01 T02240172  RH  072%=      5-min Rain = 0
KAD1 140722Z 12019KT 22/17 A3024 RMK A01 T02240172  RH  072%=      5-min Rain = 0
KAD1 140723Z 12018KT 22/17 A3024 RMK A01 T02240172  RH  073%=      5-min Rain = 0
KAD1 140724Z 12018KT 22/17 A3024 RMK A01 T02230172  RH  073%=      5-min Rain = 0
KAD1 140725Z 12019KT 22/17 A3024 RMK A01 T02230172  RH  073%=      5-min Rain = 0
KAD1 140726Z 12017KT 22/17 A3024 RMK A01 T02220172  RH  073%=      5-min Rain = 0
KAD1 140727Z 12016KT 22/17 A3024 RMK A01 T02220172  RH  073%=      5-min Rain = 0
KAD1 140728Z 12017KT 22/17 A3024 RMK A01 T02210172  RH  074%=      5-min Rain = 0
KAD1 140729Z 12017KT 22/17 A3024 RMK A01 T02210172  RH  074%=      5-min Rain = 0
KAD1 140730Z 12017KT 22/17 A3024 RMK A01 T02210172  RH  074%=      5-min Rain = 0
KAD1 140731Z 12017KT 22/17 A3024 RMK A01 T02210172  RH  074%=      5-min Rain = 0
KAD1 140732Z 11016KT 22/17 A3024 RMK A01 T02200172  RH  074%=      5-min Rain = 0
KAD1 140733Z 10017KT 22/17 A3024 RMK A01 T02190172  RH  075%=      5-min Rain = 0
KAD1 140734Z 09017KT 22/17 A3024 RMK A01 T02180172  RH  075%=      5-min Rain = 0
KAD1 140735Z 08015KT 22/17 A3024 RMK A01 T02160173  RH  076%=      5-min Rain = 0
KAD1 140736Z 08016KT 21/17 A3024 RMK A01 T02120173  RH  078%=      5-min Rain = 0
KAD1 140737Z 08018G24KT 21/17 A3024 RMK A01 T02090173  RH  080%=      5-min Rain = 0
KAD1 140738Z 08020KT 21/17 A3024 RMK A01 T02070168  RH  079%=      5-min Rain = 0
KAD1 140739Z 08018KT 20/17 A3024 RMK A01 T02040166  RH  079%=      5-min Rain = 0
KAD1 140740Z 09020KT 20/17 A3024 RMK A01 T02020165  RH  079%=      5-min Rain = 0
KAD1 140741Z 09019KT 20/16 A3024 RMK A01 T02010162  RH  079%=      5-min Rain = 0
KAD1 140742Z 09020KT 20/16 A3024 RMK A01 T01990159  RH  078%=      5-min Rain = 0
KAD1 140743Z 09021KT 20/16 A3024 RMK A01 T01980157  RH  077%=      5-min Rain = 0
KAD1 140744Z 09019KT 20/16 A3024 RMK A01 T01970156  RH  077%=      5-min Rain = 0
KAD1 140745Z 09018KT 20/16 A3024 RMK A01 T01960156  RH  078%=      5-min Rain = 0
KAD1 140746Z 09019KT 20/16 A3024 RMK A01 T01950156  RH  078%=      5-min Rain = 0
KAD1 140747Z 09019KT 20/16 A3024 RMK A01 T01950155  RH  078%=      5-min Rain = 0
KAD1 140748Z 09019KT 20/16 A3024 RMK A01 T01950155  RH  078%=      5-min Rain = 0
KAD1 140749Z 09019KT 20/16 A3024 RMK A01 T01950155  RH  078%=      5-min Rain = 0
KAD1 140750Z 09017KT 19/15 A3024 RMK A01 T01940154  RH  078%=      5-min Rain = 0
KAD1 140751Z 09018KT 19/15 A3024 RMK A01 T01940153  RH  077%=      5-min Rain = 0
KAD1 140752Z 09017KT 19/15 A3024 RMK A01 T01930152  RH  077%=      5-min Rain = 0
KAD1 140753Z 09019KT 19/15 A3024 RMK A01 T01920151  RH  077%=      5-min Rain = 0
KAD1 140754Z 09023KT 19/15 A3024 RMK A01 T01910147  RH  076%=      5-min Rain = 0
KAD1 140755Z 09021KT 19/15 A3024 RMK A01 T01900145  RH  075%=      5-min Rain = 0
KAD1 140756Z 09023KT 19/14 A3025 RMK A01 T01890144  RH  075%=      5-min Rain = 0
KAD1 140757Z 08020KT 19/14 A3025 RMK A01 T01890143  RH  075%=      5-min Rain = 0
KAD1 140758Z 08020KT 19/14 A3025 RMK A01 T01880143  RH  075%=      5-min Rain = 0
KAD1 140759Z 08020KT 19/14 A3025 RMK A01 T01870143  RH  075%=      5-min Rain = 0
KAD1 140800Z 08022KT 19/14 A3025 RMK A01 T01870142  RH  075%=      5-min Rain = 0
KAD1 140801Z 08021KT 19/14 A3025 RMK A01 T01860142  RH  075%=      5-min Rain = 0
KAD1 140802Z 08021KT 19/14 A3025 RMK A01 T01860142  RH  075%=      5-min Rain = 0
KAD1 140803Z 09019KT 19/14 A3025 RMK A01 T01860142  RH  076%=      5-min Rain = 0
KAD1 140804Z 08019KT 19/14 A3025 RMK A01 T01860142  RH  076%=      5-min Rain = 0
KAD1 140805Z 08016KT 19/14 A3025 RMK A01 T01850142  RH  076%=      5-min Rain = 0
KAD1 140806Z 08016KT 19/14 A3025 RMK A01 T01850142  RH  076%=      5-min Rain = 0
KAD1 140807Z 08016KT 18/14 A3025 RMK A01 T01840142  RH  076%=      5-min Rain = 0
KAD1 140808Z 08018KT 18/14 A3025 RMK A01 T01840141  RH  076%=      5-min Rain = 0
KAD1 140809Z 09017KT 18/14 A3025 RMK A01 T01840141  RH  076%=      5-min Rain = 0
KAD1 140810Z 08017KT 18/14 A3025 RMK A01 T01830141  RH  076%=      5-min Rain = 0
KAD1 140811Z 08018G23KT 18/14 A3025 RMK A01 T01830141  RH  076%=      5-min Rain = 0
KAD1 140812Z 09021KT 18/14 A3025 RMK A01 T01820140  RH  076%=      5-min Rain = 0
KAD1 140813Z 09019KT 18/14 A3025 RMK A01 T01820139  RH  076%=      5-min Rain = 0
KAD1 140814Z 09018KT 18/14 A3025 RMK A01 T01820138  RH  076%=      5-min Rain = 0
KAD1 140815Z 09021KT 18/14 A3024 RMK A01 T01820138  RH  076%=      5-min Rain = 0
KAD1 140816Z 09018KT 18/14 A3024 RMK A01 T01820138  RH  075%=      5-min Rain = 0
KAD1 140817Z 09019KT 18/14 A3024 RMK A01 T01810138  RH  076%=      5-min Rain = 0
KAD1 140818Z 09019KT 18/14 A3024 RMK A01 T01810137  RH  076%=      5-min Rain = 0
KAD1 140819Z 09018KT 18/14 A3024 RMK A01 T01810137  RH  075%=      5-min Rain = 0
KAD1 140820Z 09019KT 18/14 A3024 RMK A01 T01810137  RH  076%=      5-min Rain = 0
KAD1 140821Z 09019KT 18/14 A3024 RMK A01 T01800136  RH  076%=      5-min Rain = 0
KAD1 140822Z 09018KT 18/14 A3025 RMK A01 T01800137  RH  076%=      5-min Rain = 0
KAD1 140823Z 09021KT 18/14 A3024 RMK A01 T01790136  RH  076%=      5-min Rain = 0
KAD1 140824Z 09021KT 18/14 A3025 RMK A01 T01790135  RH  076%=      5-min Rain = 0
KAD1 140825Z 09019KT 18/14 A3025 RMK A01 T01790135  RH  076%=      5-min Rain = 0
KAD1 140826Z 09018KT 18/14 A3025 RMK A01 T01790136  RH  076%=      5-min Rain = 0
KAD1 140827Z 09018KT 18/14 A3025 RMK A01 T01790135  RH  076%=      5-min Rain = 0
KAD1 140828Z 09017KT 18/14 A3025 RMK A01 T01780135  RH  076%=      5-min Rain = 0
KAD1 140829Z 09016KT 18/14 A3025 RMK A01 T01780136  RH  076%=      5-min Rain = 0
KAD1 140830Z 09019KT 18/14 A3025 RMK A01 T01780135  RH  076%=      5-min Rain = 0
KAD1 140831Z 08016KT 18/14 A3025 RMK A01 T01780135  RH  076%=      5-min Rain = 0
KAD1 140832Z 08017G22KT 18/14 A3026 RMK A01 T01780135  RH  076%=      5-min Rain = 0
KAD1 140833Z 08021KT 18/13 A3026 RMK A01 T01780133  RH  075%=      5-min Rain = 0
KAD1 140834Z 08022G27KT 18/13 A3026 RMK A01 T01780132  RH  075%=      5-min Rain = 0
KAD1 140835Z 09022KT 18/13 A3026 RMK A01 T01770131  RH  074%=      5-min Rain = 0
KAD1 140836Z 09023KT 18/13 A3026 RMK A01 T01770129  RH  074%=      5-min Rain = 0
KAD1 140837Z 09022KT 18/13 A3026 RMK A01 T01770129  RH  073%=      5-min Rain = 0
KAD1 140838Z 09021KT 18/13 A3026 RMK A01 T01770129  RH  074%=      5-min Rain = 0
KAD1 140839Z 09023G28KT 18/13 A3026 RMK A01 T01760128  RH  073%=      5-min Rain = 0
KAD1 140840Z 09021KT 18/13 A3026 RMK A01 T01760128  RH  073%=      5-min Rain = 0
KAD1 140841Z 09021KT 18/13 A3026 RMK A01 T01750127  RH  073%=      5-min Rain = 0
KAD1 140842Z 09019KT 18/13 A3027 RMK A01 T01750128  RH  074%=      5-min Rain = 0
KAD1 140843Z 09020KT 18/13 A3027 RMK A01 T01750127  RH  074%=      5-min Rain = 0
KAD1 140844Z 08020KT 18/13 A3027 RMK A01 T01750127  RH  074%=      5-min Rain = 0
KAD1 140845Z 09017G22KT 18/13 A3027 RMK A01 T01750127  RH  074%=      5-min Rain = 0
KAD1 140846Z 08020KT 18/13 A3027 RMK A01 T01750127  RH  074%=      5-min Rain = 0
KAD1 140847Z 09018KT 17/13 A3027 RMK A01 T01740128  RH  074%=      5-min Rain = 0
KAD1 140848Z 08019KT 17/13 A3027 RMK A01 T01740128  RH  074%=      5-min Rain = 0
KAD1 140849Z 08020KT 17/13 A3027 RMK A01 T01730127  RH  074%=      5-min Rain = 0
KAD1 140850Z 08018KT 17/13 A3028 RMK A01 T01740128  RH  075%=      5-min Rain = 0
KAD1 140851Z 08018KT 17/13 A3028 RMK A01 T01740128  RH  075%=      5-min Rain = 0
KAD1 140852Z 08017KT 17/13 A3028 RMK A01 T01730129  RH  075%=      5-min Rain = 0
KAD1 140853Z 08015KT 17/13 A3028 RMK A01 T01730130  RH  076%=      5-min Rain = 0
KAD1 140854Z 07015KT 17/13 A3028 RMK A01 T01730132  RH  077%=      5-min Rain = 0
KAD1 140855Z 08017G22KT 17/13 A3028 RMK A01 T01730132  RH  077%=      5-min Rain = 0
KAD1 140856Z 08021KT 17/13 A3028 RMK A01 T01730129  RH  076%=      5-min Rain = 0
KAD1 140857Z 08021G26KT 17/13 A3028 RMK A01 T01730128  RH  075%=      5-min Rain = 0
KAD1 140858Z 08018KT 17/13 A3028 RMK A01 T01730127  RH  074%=      5-min Rain = 0
KAD1 140859Z 08020G26KT 17/13 A3028 RMK A01 T01730127  RH  074%=      5-min Rain = 0
KAD1 140900Z 08018KT 17/13 A3028 RMK A01 T01730126  RH  074%=      5-min Rain = 0
KAD1 140901Z 08017KT 17/13 A3028 RMK A01 T01740126  RH  074%=      5-min Rain = 0
KAD1 140902Z 08017KT 17/13 A3028 RMK A01 T01740126  RH  074%=      5-min Rain = 0
KAD1 140903Z 08017KT 17/13 A3028 RMK A01 T01740126  RH  074%=      5-min Rain = 0
KAD1 140904Z 08018KT 17/13 A3028 RMK A01 T01740126  RH  074%=      5-min Rain = 0
KAD1 140905Z 08018KT 17/13 A3028 RMK A01 T01730126  RH  074%=      5-min Rain = 0
KAD1 140906Z 08018KT 17/13 A3028 RMK A01 T01730126  RH  074%=      5-min Rain = 0
KAD1 140907Z 08017KT 17/13 A3028 RMK A01 T01730126  RH  074%=      5-min Rain = 0
KAD1 140908Z 08016G21KT 17/13 A3028 RMK A01 T01730126  RH  074%=      5-min Rain = 0
KAD1 140909Z 08020KT 17/13 A3028 RMK A01 T01730126  RH  074%=      5-min Rain = 0
KAD1 140910Z 08021KT 17/12 A3028 RMK A01 T01730124  RH  073%=      5-min Rain = 0
KAD1 140911Z 08019KT 17/12 A3028 RMK A01 T01730124  RH  073%=      5-min Rain = 0
KAD1 140912Z 08019KT 17/12 A3028 RMK A01 T01730123  RH  073%=      5-min Rain = 0
KAD1 140913Z 08017KT 17/12 A3028 RMK A01 T01730124  RH  073%=      5-min Rain = 0
KAD1 140914Z 08018KT 17/12 A3028 RMK A01 T01730124  RH  073%=      5-min Rain = 0
KAD1 140915Z 08019KT 17/12 A3028 RMK A01 T01730124  RH  073%=      5-min Rain = 0
KAD1 140916Z 08020KT 17/12 A3028 RMK A01 T01730122  RH  072%=      5-min Rain = 0
KAD1 140917Z 07019KT 17/12 A3028 RMK A01 T01730123  RH  072%=      5-min Rain = 0
KAD1 140918Z 08016KT 17/12 A3028 RMK A01 T01730124  RH  073%=      5-min Rain = 0
KAD1 140919Z 07020KT 17/12 A3028 RMK A01 T01730123  RH  073%=      5-min Rain = 0
KAD1 140920Z 07017KT 17/12 A3029 RMK A01 T01730123  RH  072%=      5-min Rain = 0
KAD1 140921Z 07015KT 17/12 A3029 RMK A01 T01730123  RH  073%=      5-min Rain = 0
KAD1 140922Z 07017KT 17/12 A303 RMK A01 T01730123  RH  072%=      5-min Rain = 0
KAD1 140923Z 06019KT 17/12 A303 RMK A01 T01730122  RH  072%=      5-min Rain = 0
KAD1 140924Z 06016KT 17/12 A303 RMK A01 T01730122  RH  072%=      5-min Rain = 0
KAD1 140925Z 06014KT 17/12 A303 RMK A01 T01730123  RH  072%=      5-min Rain = 0
KAD1 140926Z 06014KT 17/12 A303 RMK A01 T01730124  RH  073%=      5-min Rain = 0
KAD1 140927Z 06016G21KT 17/12 A303 RMK A01 T01730123  RH  073%=      5-min Rain = 0
KAD1 140928Z 07017KT 17/12 A303 RMK A01 T01730122  RH  072%=      5-min Rain = 0
KAD1 140929Z 07016KT 17/12 A303 RMK A01 T01740123  RH  072%=      5-min Rain = 0
KAD1 140930Z 06017KT 17/12 A3031 RMK A01 T01740123  RH  072%=      5-min Rain = 0
KAD1 140931Z 06016KT 17/12 A3031 RMK A01 T01740123  RH  072%=      5-min Rain = 0
KAD1 140932Z 06016KT 17/12 A303 RMK A01 T01740123  RH  072%=      5-min Rain = 0
KAD1 140933Z 06017KT 17/12 A303 RMK A01 T01740123  RH  072%=      5-min Rain = 0
KAD1 140934Z 06019KT 17/12 A303 RMK A01 T01740123  RH  072%=      5-min Rain = 0
KAD1 140935Z 06021G26KT 17/12 A303 RMK A01 T01740122  RH  072%=      5-min Rain = 0
KAD1 140936Z 06019KT 17/12 A303 RMK A01 T01740121  RH  071%=      5-min Rain = 0
KAD1 140937Z 06016KT 17/12 A303 RMK A01 T01730121  RH  071%=      5-min Rain = 0
KAD1 140938Z 07017KT 17/12 A3031 RMK A01 T01730122  RH  072%=      5-min Rain = 0
KAD1 140939Z 07015KT 17/12 A3031 RMK A01 T01730123  RH  072%=      5-min Rain = 0
KAD1 140940Z 07014KT 17/13 A3031 RMK A01 T01720125  RH  074%=      5-min Rain = 0
KAD1 140941Z 06017KT 17/13 A3031 RMK A01 T01710125  RH  074%=      5-min Rain = 0
KAD1 140942Z 06015KT 17/12 A3032 RMK A01 T01710124  RH  074%=      5-min Rain = 0
KAD1 140943Z 05013KT 17/13 A3032 RMK A01 T01700127  RH  076%=      5-min Rain = 0
KAD1 140944Z 04012KT 17/13 A3032 RMK A01 T01690128  RH  077%=      5-min Rain = 0
KAD1 140945Z 04012KT 17/13 A3033 RMK A01 T01680127  RH  076%=      5-min Rain = 0
KAD1 140946Z 05012KT 17/13 A3033 RMK A01 T01690127  RH  076%=      5-min Rain = 0
KAD1 140947Z 04010KT 17/13 A3033 RMK A01 T01680128  RH  077%=      5-min Rain = 0
KAD1 140948Z 03007KT 17/13 A3033 RMK A01 T01670129  RH  078%=      5-min Rain = 0
KAD1 140949Z 02006KT 17/13 A3033 RMK A01 T01670130  RH  079%=      5-min Rain = 0.01
KAD1 140950Z 02005KT 17/13 A3033 RMK A01 T01670128  RH  078%=      5-min Rain = 0
KAD1 140951Z 34003KT 17/13 A3033 RMK A01 T01670132  RH  080%=      5-min Rain = 0
KAD1 140952Z 04001KT 17/14 A3033 RMK A01 T01660136  RH  082%=      5-min Rain = 0
KAD1 140953Z 16000KT 17/13 A3033 RMK A01 T01660128  RH  078%=      5-min Rain = 0
KAD1 140954Z 19000KT 17/13 A3033 RMK A01 T01660125  RH  077%=      5-min Rain = 0
KAD1 140955Z 17003KT 17/13 A3032 RMK A01 T01660130  RH  079%=      5-min Rain = 0
KAD1 140956Z 13003KT 17/13 A3032 RMK A01 T01660131  RH  080%=      5-min Rain = 0.01
KAD1 140957Z 11006KT 17/13 A3031 RMK A01 T01660129  RH  078%=      5-min Rain = 0
KAD1 140958Z 11009KT 17/13 A3031 RMK A01 T01660129  RH  079%=      5-min Rain = 0
KAD1 140959Z 11010KT 17/13 A303 RMK A01 T01660129  RH  078%=      5-min Rain = 0
KAD1 141000Z 12011KT 17/13 A303 RMK A01 T01660130  RH  079%=      5-min Rain = 0
KAD1 141001Z 11014KT 17/13 A3029 RMK A01 T01660130  RH  079%=      5-min Rain = 0
KAD1 141002Z 11014KT 17/13 A3029 RMK A01 T01660131  RH  080%=      5-min Rain = 0
KAD1 141003Z 12013KT 17/13 A3029 RMK A01 T01650131  RH  080%=      5-min Rain = 0
KAD1 141004Z 12014KT 17/13 A3029 RMK A01 T01650132  RH  081%=      5-min Rain = 0
KAD1 141005Z 11013KT 16/13 A3028 RMK A01 T01640132  RH  081%=      5-min Rain = 0
KAD1 141006Z 11012KT 16/13 A3028 RMK A01 T01640132  RH  082%=      5-min Rain = 0
KAD1 141007Z 11013KT 16/13 A3028 RMK A01 T01640133  RH  082%=      5-min Rain = 0
KAD1 141008Z 11011KT 16/13 A3028 RMK A01 T01630132  RH  082%=      5-min Rain = 0
KAD1 141009Z 11013KT 16/13 A3029 RMK A01 T01640132  RH  082%=      5-min Rain = 0
KAD1 141010Z 09012KT 16/13 A3029 RMK A01 T01640131  RH  081%=      5-min Rain = 0
KAD1 141011Z 09012KT 16/13 A3028 RMK A01 T01630132  RH  082%=      5-min Rain = 0
KAD1 141012Z 09012KT 16/13 A3028 RMK A01 T01630133  RH  082%=      5-min Rain = 0
KAD1 141013Z 09013KT 16/13 A3028 RMK A01 T01620132  RH  082%=      5-min Rain = 0
KAD1 141014Z 08015KT 16/13 A3028 RMK A01 T01620131  RH  082%=      5-min Rain = 0
KAD1 141015Z 09014KT 16/13 A3027 RMK A01 T01620131  RH  082%=      5-min Rain = 0
KAD1 141016Z 10014KT 16/13 A3027 RMK A01 T01620133  RH  083%=      5-min Rain = 0
KAD1 141017Z 10013KT 16/13 A3027 RMK A01 T01620132  RH  083%=      5-min Rain = 0
KAD1 141018Z 10015KT 16/13 A3026 RMK A01 T01620133  RH  083%=      5-min Rain = 0
KAD1 141019Z 10015KT 16/13 A3027 RMK A01 T01610132  RH  083%=      5-min Rain = 0
KAD1 141020Z 09016KT 16/13 A3027 RMK A01 T01610133  RH  083%=      5-min Rain = 0
KAD1 141021Z 10015G21KT 16/13 A3026 RMK A01 T01610134  RH  084%=      5-min Rain = 0
KAD1 141022Z 09017KT 16/13 A3026 RMK A01 T01610132  RH  083%=      5-min Rain = 0
KAD1 141023Z 09018KT 16/13 A3026 RMK A01 T01610130  RH  082%=      5-min Rain = 0
KAD1 141024Z 09017KT 16/13 A3026 RMK A01 T01610131  RH  082%=      5-min Rain = 0
KAD1 141025Z 09017KT 16/13 A3025 RMK A01 T01610131  RH  082%=      5-min Rain = 0
KAD1 141026Z 09018KT 16/13 A3025 RMK A01 T01610130  RH  082%=      5-min Rain = 0
KAD1 141027Z 09017KT 16/13 A3026 RMK A01 T01610131  RH  082%=      5-min Rain = 0
KAD1 141028Z 09018KT 16/13 A3025 RMK A01 T01610132  RH  083%=      5-min Rain = 0
KAD1 141029Z 10017KT 16/13 A3025 RMK A01 T01610131  RH  082%=      5-min Rain = 0
KAD1 141030Z 09018KT 16/13 A3025 RMK A01 T01610129  RH  082%=      5-min Rain = 0
KAD1 141031Z 09016KT 16/13 A3026 RMK A01 T01620130  RH  081%=      5-min Rain = 0
KAD1 141032Z 09015KT 16/13 A3026 RMK A01 T01620130  RH  081%=      5-min Rain = 0
KAD1 141033Z 09015KT 16/13 A3026 RMK A01 T01620130  RH  081%=      5-min Rain = 0
KAD1 141034Z 08016KT 16/13 A3027 RMK A01 T01620130  RH  081%=      5-min Rain = 0
KAD1 141035Z 08015KT 16/13 A3027 RMK A01 T01630129  RH  081%=      5-min Rain = 0
KAD1 141036Z 08016KT 16/13 A3027 RMK A01 T01630129  RH  080%=      5-min Rain = 0
KAD1 141037Z 08013KT 16/13 A3028 RMK A01 T01640129  RH  080%=      5-min Rain = 0
KAD1 141038Z 08015KT 16/13 A3028 RMK A01 T01640130  RH  080%=      5-min Rain = 0
KAD1 141039Z 08016KT 16/13 A3028 RMK A01 T01640130  RH  080%=      5-min Rain = 0
KAD1 141040Z 08016KT 17/13 A3028 RMK A01 T01650129  RH  080%=      5-min Rain = 0
KAD1 141041Z 07014KT 17/13 A3028 RMK A01 T01650131  RH  080%=      5-min Rain = 0
KAD1 141042Z 07016KT 17/13 A3028 RMK A01 T01650130  RH  080%=      5-min Rain = 0
KAD1 141043Z 07016KT 17/13 A3028 RMK A01 T01650129  RH  079%=      5-min Rain = 0
KAD1 141044Z 07014KT 17/13 A3029 RMK A01 T01660129  RH  079%=      5-min Rain = 0
KAD1 141045Z 07015KT 17/13 A3029 RMK A01 T01660130  RH  079%=      5-min Rain = 0
KAD1 141046Z 07013KT 17/13 A3029 RMK A01 T01660129  RH  079%=      5-min Rain = 0
KAD1 141047Z 07011KT 17/13 A3029 RMK A01 T01660131  RH  080%=      5-min Rain = 0
KAD1 141048Z 07013KT 17/13 A3029 RMK A01 T01660131  RH  080%=      5-min Rain = 0
KAD1 141049Z 07012KT 17/13 A303 RMK A01 T01660129  RH  079%=      5-min Rain = 0
KAD1 141050Z 06012KT 17/13 A303 RMK A01 T01660130  RH  079%=      5-min Rain = 0
KAD1 141051Z 07012KT 17/13 A303 RMK A01 T01660129  RH  078%=      5-min Rain = 0
KAD1 141052Z 06011KT 17/13 A303 RMK A01 T01670131  RH  079%=      5-min Rain = 0
KAD1 141053Z 06011KT 17/13 A303 RMK A01 T01670131  RH  079%=      5-min Rain = 0
KAD1 141054Z 07010KT 17/13 A303 RMK A01 T01670132  RH  080%=      5-min Rain = 0
KAD1 141055Z 07011KT 17/13 A303 RMK A01 T01670131  RH  079%=      5-min Rain = 0
KAD1 141056Z 07011KT 17/13 A3031 RMK A01 T01670130  RH  079%=      5-min Rain = 0
KAD1 141057Z 07010KT 17/13 A3031 RMK A01 T01670131  RH  079%=      5-min Rain = 0
KAD1 141058Z 07011KT 17/13 A3031 RMK A01 T01680131  RH  079%=      5-min Rain = 0
KAD1 141059Z 07012KT 17/13 A3031 RMK A01 T01680129  RH  077%=      5-min Rain = 0
KAD1 141100Z 07011KT 17/13 A3031 RMK A01 T01690129  RH  077%=      5-min Rain = 0
KAD1 141101Z 08011KT 17/13 A3031 RMK A01 T01690130  RH  078%=      5-min Rain = 0
KAD1 141102Z 08010KT 17/13 A3031 RMK A01 T01690130  RH  078%=      5-min Rain = 0
KAD1 141103Z 08011KT 17/13 A3031 RMK A01 T01690130  RH  078%=      5-min Rain = 0
KAD1 141104Z 08011KT 17/13 A3031 RMK A01 T01690129  RH  077%=      5-min Rain = 0
KAD1 141105Z 08011KT 17/13 A3031 RMK A01 T01700129  RH  077%=      5-min Rain = 0
KAD1 141106Z 08012KT 17/13 A3031 RMK A01 T01700129  RH  077%=      5-min Rain = 0
KAD1 141107Z 08011KT 17/13 A3031 RMK A01 T01700129  RH  077%=      5-min Rain = 0
KAD1 141108Z 07011KT 17/13 A3031 RMK A01 T01700130  RH  077%=      5-min Rain = 0
KAD1 141109Z 06010KT 17/13 A3032 RMK A01 T01700131  RH  077%=      5-min Rain = 0
KAD1 141110Z 05009KT 17/13 A3032 RMK A01 T01700133  RH  078%=      5-min Rain = 0
KAD1 141111Z 02011KT 17/13 A3033 RMK A01 T01700134  RH  079%=      5-min Rain = 0
KAD1 141112Z 01013KT 17/13 A3033 RMK A01 T01700134  RH  079%=      5-min Rain = 0
KAD1 141113Z 01014KT 17/13 A3033 RMK A01 T01700133  RH  079%=      5-min Rain = 0
KAD1 141114Z 01013KT 17/13 A3033 RMK A01 T01690133  RH  080%=      5-min Rain = 0
KAD1 141115Z 02011KT 17/13 A3033 RMK A01 T01670131  RH  079%=      5-min Rain = 0
KAD1 141116Z 03009KT 17/13 A3033 RMK A01 T01670131  RH  079%=      5-min Rain = 0
KAD1 141117Z 03010KT 17/13 A3033 RMK A01 T01670131  RH  080%=      5-min Rain = 0
KAD1 141118Z 03011KT 17/13 A3033 RMK A01 T01670132  RH  080%=      5-min Rain = 0
KAD1 141119Z 03010KT 17/13 A3033 RMK A01 T01670133  RH  080%=      5-min Rain = 0
KAD1 141120Z 05010KT 17/13 A3033 RMK A01 T01660134  RH  081%=      5-min Rain = 0
KAD1 141121Z 05010KT 17/13 A3033 RMK A01 T01660133  RH  081%=      5-min Rain = 0
KAD1 141122Z 06011KT 17/13 A3033 RMK A01 T01660132  RH  080%=      5-min Rain = 0
KAD1 141123Z 06010KT 17/13 A3033 RMK A01 T01670132  RH  080%=      5-min Rain = 0
KAD1 141124Z 06013KT 17/13 A3033 RMK A01 T01670131  RH  079%=      5-min Rain = 0
KAD1 141125Z 06012KT 17/13 A3033 RMK A01 T01680130  RH  078%=      5-min Rain = 0
KAD1 141126Z 06012KT 17/13 A3033 RMK A01 T01680130  RH  078%=      5-min Rain = 0
KAD1 141127Z 05013KT 17/13 A3033 RMK A01 T01680131  RH  079%=      5-min Rain = 0
KAD1 141128Z 05014KT 17/13 A3033 RMK A01 T01680131  RH  079%=      5-min Rain = 0
KAD1 141129Z 05015KT 17/13 A3033 RMK A01 T01680129  RH  078%=      5-min Rain = 0
KAD1 141130Z 04013KT 17/13 A3033 RMK A01 T01680131  RH  079%=      5-min Rain = 0
KAD1 141131Z 04012KT 17/13 A3034 RMK A01 T01670133  RH  080%=      5-min Rain = 0
KAD1 141132Z 04013KT 17/13 A3034 RMK A01 T01670132  RH  080%=      5-min Rain = 0
KAD1 141133Z 02011KT 17/13 A3034 RMK A01 T01670132  RH  080%=      5-min Rain = 0
KAD1 141134Z 02012KT 17/13 A3035 RMK A01 T01670132  RH  080%=      5-min Rain = 0.01
KAD1 141135Z 02011KT 17/13 A3035 RMK A01 T01660132  RH  080%=      5-min Rain = 0
KAD1 141136Z 01012KT 17/13 A3036 RMK A01 T01660132  RH  080%=      5-min Rain = 0
KAD1 141137Z 36012KT 17/13 A3036 RMK A01 T01650132  RH  081%=      5-min Rain = 0
KAD1 141138Z 34011KT 17/13 A3036 RMK A01 T01650134  RH  082%=      5-min Rain = 0
KAD1 141139Z 33012KT 16/14 A3037 RMK A01 T01640135  RH  083%=      5-min Rain = 0.01
KAD1 141140Z 32011KT 16/14 A3037 RMK A01 T01620136  RH  085%=      5-min Rain = 0
KAD1 141141Z 33011KT 16/14 A3037 RMK A01 T01610138  RH  086%=      5-min Rain = 0
KAD1 141142Z 32013KT 16/14 A3037 RMK A01 T01600140  RH  088%=      5-min Rain = 0
KAD1 141143Z 32013KT 16/14 A3037 RMK A01 T01580140  RH  089%=      5-min Rain = 0
KAD1 141144Z 32011KT 16/14 A3037 RMK A01 T01570142  RH  091%=      5-min Rain = 0
KAD1 141145Z 32011KT 16/14 A3037 RMK A01 T01560142  RH  091%=      5-min Rain = 0.01
KAD1 141146Z 32011KT 16/14 A3037 RMK A01 T01550142  RH  092%=      5-min Rain = 0
KAD1 141147Z 33010KT 15/14 A3037 RMK A01 T01540140  RH  092%=      5-min Rain = 0
KAD1 141148Z 33010KT 15/14 A3037 RMK A01 T01530141  RH  092%=      5-min Rain = 0
KAD1 141149Z 33008KT 15/14 A3037 RMK A01 T01530141  RH  093%=      5-min Rain = 0
KAD1 141150Z 32006KT 15/14 A3037 RMK A01 T01530142  RH  093%=      5-min Rain = 0
KAD1 141151Z 32008KT 15/14 A3037 RMK A01 T01520142  RH  094%=      5-min Rain = 0
KAD1 141152Z 32008KT 15/14 A3037 RMK A01 T01520142  RH  094%=      5-min Rain = 0.01
KAD1 141153Z 31008KT 15/14 A3036 RMK A01 T01520141  RH  094%=      5-min Rain = 0
KAD1 141154Z 30008KT 15/14 A3036 RMK A01 T01520141  RH  094%=      5-min Rain = 0
KAD1 141155Z 31009KT 15/14 A3036 RMK A01 T01520142  RH  094%=      5-min Rain = 0
KAD1 141156Z 31008KT 15/14 A3037 RMK A01 T01520142  RH  094%=      5-min Rain = 0
KAD1 141157Z 30007KT 15/14 A3037 RMK A01 T01510141  RH  094%=      5-min Rain = 0
KAD1 141158Z 30006KT 15/14 A3036 RMK A01 T01520142  RH  094%=      5-min Rain = 0
KAD1 141159Z 30004KT 15/14 A3036 RMK A01 T01520141  RH  093%=      5-min Rain = 0
KAD1 141200Z 29004KT 15/14 A3036 RMK A01 T01520141  RH  093%=      5-min Rain = 0
KAD1 141201Z 26003KT 15/14 A3036 RMK A01 T01520141  RH  093%=      5-min Rain = 0
KAD1 141202Z 26003KT 15/14 A3036 RMK A01 T01520141  RH  093%=      5-min Rain = 0
KAD1 141203Z 22002KT 15/14 A3036 RMK A01 T01520141  RH  093%=      5-min Rain = 0
KAD1 141204Z 21000KT 15/14 A3035 RMK A01 T01520141  RH  093%=      5-min Rain = 0.01
KAD1 141205Z 11002KT 15/14 A3035 RMK A01 T01520142  RH  093%=      5-min Rain = 0
KAD1 141206Z 10003KT 15/14 A3035 RMK A01 T01520141  RH  093%=      5-min Rain = 0
KAD1 141207Z 13002KT 15/14 A3035 RMK A01 T01530138  RH  091%=      5-min Rain = 0
KAD1 141208Z 14002KT 15/14 A3035 RMK A01 T01540138  RH  090%=      5-min Rain = 0
KAD1 141209Z 13004KT 16/14 A3035 RMK A01 T01550139  RH  090%=      5-min Rain = 0
KAD1 141210Z 16004KT 16/14 A3036 RMK A01 T01560141  RH  090%=      5-min Rain = 0
KAD1 141211Z 17002KT 16/14 A3036 RMK A01 T01560141  RH  091%=      5-min Rain = 0
KAD1 141212Z 16003KT 16/14 A3036 RMK A01 T01560141  RH  091%=      5-min Rain = 0.01
KAD1 141213Z 16003KT 16/14 A3036 RMK A01 T01560141  RH  091%=      5-min Rain = 0
KAD1 141214Z 16004KT 16/14 A3036 RMK A01 T01560141  RH  091%=      5-min Rain = 0
KAD1 141215Z 15004KT 16/14 A3036 RMK A01 T01560141  RH  091%=      5-min Rain = 0
KAD1 141216Z 15004KT 16/14 A3036 RMK A01 T01560142  RH  091%=      5-min Rain = 0
KAD1 141217Z 13005KT 16/14 A3035 RMK A01 T01560142  RH  091%=      5-min Rain = 0.01
KAD1 141218Z 14006KT 16/14 A3035 RMK A01 T01560140  RH  090%=      5-min Rain = 0
KAD1 141219Z 14006KT 16/14 A3035 RMK A01 T01570140  RH  090%=      5-min Rain = 0
KAD1 141220Z 13005KT 16/14 A3035 RMK A01 T01580142  RH  090%=      5-min Rain = 0
KAD1 141221Z 12005KT 16/14 A3035 RMK A01 T01580142  RH  090%=      5-min Rain = 0
KAD1 141222Z 12004KT 16/14 A3035 RMK A01 T01580141  RH  090%=      5-min Rain = 0
KAD1 141223Z 12003KT 16/14 A3035 RMK A01 T01580140  RH  089%=      5-min Rain = 0
KAD1 141224Z 11003KT 16/14 A3035 RMK A01 T01580140  RH  089%=      5-min Rain = 0
KAD1 141225Z 15002KT 16/14 A3035 RMK A01 T01590140  RH  088%=      5-min Rain = 0
KAD1 141226Z 12003KT 16/14 A3036 RMK A01 T01590139  RH  088%=      5-min Rain = 0
KAD1 141227Z 11003KT 16/14 A3036 RMK A01 T01600138  RH  087%=      5-min Rain = 0
KAD1 141228Z 10005KT 16/14 A3036 RMK A01 T01610138  RH  086%=      5-min Rain = 0
KAD1 141229Z 09008KT 16/14 A3035 RMK A01 T01640136  RH  084%=      5-min Rain = 0.01
KAD1 141230Z 09008KT 17/14 A3035 RMK A01 T01650137  RH  083%=      5-min Rain = 0
KAD1 141231Z 10009KT 17/14 A3035 RMK A01 T01660139  RH  084%=      5-min Rain = 0
KAD1 141232Z 10009KT 17/14 A3035 RMK A01 T01650138  RH  084%=      5-min Rain = 0
KAD1 141233Z 11009KT 17/14 A3035 RMK A01 T01650137  RH  083%=      5-min Rain = 0
KAD1 141234Z 11010KT 17/14 A3035 RMK A01 T01660139  RH  084%=      5-min Rain = 0
KAD1 141235Z 10012KT 17/14 A3035 RMK A01 T01660135  RH  082%=      5-min Rain = 0
KAD1 141236Z 10011KT 17/14 A3035 RMK A01 T01680135  RH  081%=      5-min Rain = 0
KAD1 141237Z 11012KT 17/14 A3034 RMK A01 T01680137  RH  082%=      5-min Rain = 0
KAD1 141238Z 11012KT 17/14 A3034 RMK A01 T01680137  RH  082%=      5-min Rain = 0
KAD1 141239Z 11012KT 17/14 A3034 RMK A01 T01670137  RH  082%=      5-min Rain = 0
KAD1 141240Z 11012KT 17/14 A3034 RMK A01 T01670139  RH  083%=      5-min Rain = 0.01
KAD1 141241Z 11012KT 17/14 A3034 RMK A01 T01660140  RH  084%=      5-min Rain = 0
KAD1 141242Z 12013KT 17/14 A3033 RMK A01 T01650138  RH  084%=      5-min Rain = 0
KAD1 141243Z 12014KT 17/14 A3033 RMK A01 T01650140  RH  085%=      5-min Rain = 0
KAD1 141244Z 12016KT 16/14 A3032 RMK A01 T01640140  RH  086%=      5-min Rain = 0
KAD1 141245Z 12017KT 16/14 A3031 RMK A01 T01640140  RH  086%=      5-min Rain = 0.01
KAD1 141246Z 12020KT 16/14 A3031 RMK A01 T01640141  RH  086%=      5-min Rain = 0
KAD1 141247Z 12022KT 16/14 A303 RMK A01 T01640140  RH  086%=      5-min Rain = 0
KAD1 141248Z 12026KT 16/14 A3028 RMK A01 T01630139  RH  086%=      5-min Rain = 0.01
KAD1 141249Z 12028KT 16/14 A3027 RMK A01 T01640139  RH  085%=      5-min Rain = 0
KAD1 141250Z 12029KT 16/14 A3026 RMK A01 T01640138  RH  084%=      5-min Rain = 0
KAD1 141251Z 12029KT 16/14 A3024 RMK A01 T01640138  RH  085%=      5-min Rain = 0
KAD1 141252Z 12031KT 16/14 A3024 RMK A01 T01640138  RH  085%=      5-min Rain = 0
KAD1 141253Z 12032KT 16/14 A3023 RMK A01 T01640139  RH  085%=      5-min Rain = 0
KAD1 141254Z 12031KT 16/14 A3023 RMK A01 T01630137  RH  085%=      5-min Rain = 0
KAD1 141255Z 12030KT 17/14 A3023 RMK A01 T01650136  RH  083%=      5-min Rain = 0
KAD1 141256Z 12028G33KT 17/14 A3023 RMK A01 T01670136  RH  082%=      5-min Rain = 0
KAD1 141257Z 11027KT 17/14 A3024 RMK A01 T01700135  RH  080%=      5-min Rain = 0
KAD1 141258Z 11027KT 17/13 A3024 RMK A01 T01720134  RH  078%=      5-min Rain = 0
KAD1 141259Z 12025KT 17/14 A3024 RMK A01 T01740135  RH  078%=      5-min Rain = 0
KAD1 141300Z 12026KT 17/14 A3025 RMK A01 T01730135  RH  078%=      5-min Rain = 0
KAD1 141301Z 12024KT 17/14 A3025 RMK A01 T01730136  RH  079%=      5-min Rain = 0
KAD1 141302Z 12022KT 17/14 A3025 RMK A01 T01730135  RH  078%=      5-min Rain = 0
KAD1 141303Z 12021KT 17/14 A3026 RMK A01 T01730136  RH  079%=      5-min Rain = 0
KAD1 141304Z 12020KT 17/14 A3026 RMK A01 T01730135  RH  079%=      5-min Rain = 0
KAD1 141305Z 13019G24KT 18/13 A3026 RMK A01 T01750134  RH  077%=      5-min Rain = 0
KAD1 141306Z 13019KT 18/13 A3026 RMK A01 T01770133  RH  075%=      5-min Rain = 0
KAD1 141307Z 14016KT 18/14 A3026 RMK A01 T01770137  RH  077%=      5-min Rain = 0
KAD1 141308Z 14016KT 18/14 A3026 RMK A01 T01750136  RH  077%=      5-min Rain = 0
KAD1 141309Z 13020KT 18/14 A3025 RMK A01 T01750135  RH  077%=      5-min Rain = 0
KAD1 141310Z 13018KT 18/13 A3025 RMK A01 T01750134  RH  077%=      5-min Rain = 0
KAD1 141311Z 14018KT 18/14 A3025 RMK A01 T01760135  RH  077%=      5-min Rain = 0
KAD1 141312Z 14018KT 18/13 A3025 RMK A01 T01750134  RH  077%=      5-min Rain = 0
KAD1 141313Z 14016KT 18/14 A3025 RMK A01 T01760135  RH  077%=      5-min Rain = 0
KAD1 141314Z 15017KT 18/14 A3025 RMK A01 T01750135  RH  077%=      5-min Rain = 0
KAD1 141315Z 15017KT 18/14 A3025 RMK A01 T01750135  RH  078%=      5-min Rain = 0
KAD1 141316Z 15017KT 18/14 A3025 RMK A01 T01750136  RH  078%=      5-min Rain = 0
KAD1 141317Z 15018KT 17/14 A3025 RMK A01 T01740135  RH  078%=      5-min Rain = 0
KAD1 141318Z 15019KT 18/13 A3025 RMK A01 T01760134  RH  076%=      5-min Rain = 0
KAD1 141319Z 14019KT 18/13 A3025 RMK A01 T01780134  RH  075%=      5-min Rain = 0
KAD1 141320Z 15018KT 18/13 A3024 RMK A01 T01780134  RH  075%=      5-min Rain = 0
KAD1 141321Z 14019KT 18/13 A3024 RMK A01 T01790132  RH  074%=      5-min Rain = 0
KAD1 141322Z 14017KT 18/13 A3024 RMK A01 T01810131  RH  072%=      5-min Rain = 0
KAD1 141323Z 14018KT 18/13 A3024 RMK A01 T01830131  RH  072%=      5-min Rain = 0
KAD1 141324Z 14018KT 18/13 A3024 RMK A01 T01830131  RH  071%=      5-min Rain = 0
KAD1 141325Z 13019KT 18/13 A3024 RMK A01 T01840131  RH  071%=      5-min Rain = 0
KAD1 141326Z 13020KT 19/13 A3025 RMK A01 T01850130  RH  070%=      5-min Rain = 0
KAD1 141327Z 13019KT 19/13 A3025 RMK A01 T01860130  RH  070%=      5-min Rain = 0
KAD1 141328Z 14018KT 19/13 A3025 RMK A01 T01860130  RH  070%=      5-min Rain = 0
KAD1 141329Z 13017KT 19/13 A3026 RMK A01 T01870128  RH  069%=      5-min Rain = 0
KAD1 141330Z 14017KT 19/13 A3026 RMK A01 T01880129  RH  068%=      5-min Rain = 0
KAD1 141331Z 13017KT 19/13 A3026 RMK A01 T01900128  RH  067%=      5-min Rain = 0
KAD1 141332Z 13016KT 19/13 A3026 RMK A01 T01900129  RH  068%=      5-min Rain = 0
KAD1 141333Z 13016KT 19/13 A3027 RMK A01 T01910130  RH  068%=      5-min Rain = 0
KAD1 141334Z 14016KT 19/13 A3027 RMK A01 T01910132  RH  069%=      5-min Rain = 0
KAD1 141335Z 14018KT 19/13 A3027 RMK A01 T01910129  RH  067%=      5-min Rain = 0
KAD1 141336Z 14019KT 19/13 A3027 RMK A01 T01930125  RH  064%=      5-min Rain = 0
KAD1 141337Z 14015KT 20/13 A3027 RMK A01 T01960127  RH  064%=      5-min Rain = 0
KAD1 141338Z 14014KT 20/13 A3027 RMK A01 T01960128  RH  065%=      5-min Rain = 0
KAD1 141339Z 14014KT 20/13 A3027 RMK A01 T01960129  RH  065%=      5-min Rain = 0
KAD1 141340Z 15014KT 20/13 A3027 RMK A01 T01950129  RH  066%=      5-min Rain = 0
KAD1 141341Z 14015KT 20/13 A3027 RMK A01 T01950129  RH  066%=      5-min Rain = 0
KAD1 141342Z 14015KT 20/13 A3027 RMK A01 T01950127  RH  065%=      5-min Rain = 0
KAD1 141343Z 15014KT 20/13 A3027 RMK A01 T01970127  RH  064%=      5-min Rain = 0
KAD1 141344Z 14014KT 20/13 A3027 RMK A01 T01970128  RH  064%=      5-min Rain = 0
KAD1 141345Z 15013KT 20/13 A3027 RMK A01 T01970128  RH  064%=      5-min Rain = 0
KAD1 141346Z 15014KT 20/13 A3027 RMK A01 T01980129  RH  064%=      5-min Rain = 0
KAD1 141347Z 15013KT 20/13 A3027 RMK A01 T01980127  RH  064%=      5-min Rain = 0
KAD1 141348Z 15013KT 20/13 A3027 RMK A01 T01980127  RH  063%=      5-min Rain = 0
KAD1 141349Z 15013KT 20/13 A3027 RMK A01 T01990127  RH  063%=      5-min Rain = 0
KAD1 141350Z 15012KT 20/13 A3027 RMK A01 T01990130  RH  064%=      5-min Rain = 0
KAD1 141351Z 15013KT 20/13 A3027 RMK A01 T01980128  RH  064%=      5-min Rain = 0
KAD1 141352Z 14011KT 20/13 A3027 RMK A01 T01980129  RH  064%=      5-min Rain = 0
KAD1 141353Z 14011KT 20/13 A3027 RMK A01 T01980130  RH  065%=      5-min Rain = 0
KAD1 141354Z 14012KT 20/13 A3027 RMK A01 T01980130  RH  065%=      5-min Rain = 0
KAD1 141355Z 15011KT 20/13 A3027 RMK A01 T01980128  RH  064%=      5-min Rain = 0
KAD1 141356Z 15012KT 20/13 A3027 RMK A01 T01990128  RH  064%=      5-min Rain = 0
KAD1 141357Z 15011KT 20/13 A3027 RMK A01 T01990130  RH  064%=      5-min Rain = 0
KAD1 141358Z 14011KT 20/13 A3027 RMK A01 T02000130  RH  064%=      5-min Rain = 0
KAD1 141359Z 15011KT 20/13 A3028 RMK A01 T02000129  RH  064%=      5-min Rain = 0
KAD1 141400Z 15011KT 20/13 A3028 RMK A01 T02010128  RH  063%=      5-min Rain = 0
KAD1 141401Z 15011KT 20/13 A3028 RMK A01 T02020129  RH  063%=      5-min Rain = 0
KAD1 141402Z 15011KT 20/13 A3028 RMK A01 T02030128  RH  062%=      5-min Rain = 0
KAD1 141403Z 15011KT 20/13 A3028 RMK A01 T02040128  RH  062%=      5-min Rain = 0
KAD1 141404Z 15011KT 21/13 A3028 RMK A01 T02050129  RH  062%=      5-min Rain = 0
KAD1 141405Z 15011KT 21/13 A3028 RMK A01 T02060128  RH  061%=      5-min Rain = 0
KAD1 141406Z 15010KT 21/13 A3028 RMK A01 T02070129  RH  061%=      5-min Rain = 0
KAD1 141407Z 16009KT 21/13 A3028 RMK A01 T02080130  RH  061%=      5-min Rain = 0
KAD1 141408Z 17007KT 21/13 A3028 RMK A01 T02080130  RH  061%=      5-min Rain = 0
KAD1 141409Z 18005KT 21/13 A3029 RMK A01 T02080131  RH  062%=      5-min Rain = 0
KAD1 141410Z 18004KT 21/13 A3029 RMK A01 T02080131  RH  061%=      5-min Rain = 0
KAD1 141411Z 19004KT 21/13 A3029 RMK A01 T02080132  RH  062%=      5-min Rain = 0
KAD1 141412Z 22004KT 21/13 A3029 RMK A01 T02080132  RH  062%=      5-min Rain = 0
KAD1 141413Z 23004KT 21/14 A3029 RMK A01 T02080135  RH  063%=      5-min Rain = 0
KAD1 141414Z 26004KT 21/14 A3029 RMK A01 T02080136  RH  064%=      5-min Rain = 0
KAD1 141415Z 29008KT 21/13 A303 RMK A01 T02080133  RH  062%=      5-min Rain = 0
KAD1 141416Z 29012KT 21/13 A303 RMK A01 T02090131  RH  061%=      5-min Rain = 0
KAD1 141417Z 29009KT 21/13 A303 RMK A01 T02070132  RH  062%=      5-min Rain = 0
KAD1 141418Z 32008KT 21/13 A303 RMK A01 T02060133  RH  063%=      5-min Rain = 0
KAD1 141419Z 33008KT 21/13 A303 RMK A01 T02060133  RH  063%=      5-min Rain = 0
KAD1 141420Z 32011KT 21/13 A303 RMK A01 T02070130  RH  061%=      5-min Rain = 0
KAD1 141421Z 32010KT 21/12 A303 RMK A01 T02100120  RH  057%=      5-min Rain = 0
KAD1 141422Z 31008KT 22/12 A303 RMK A01 T02150116  RH  053%=      5-min Rain = 0
KAD1 141423Z 32007KT 22/12 A3031 RMK A01 T02180124  RH  055%=      5-min Rain = 0
KAD1 141424Z 32011KT 22/13 A3031 RMK A01 T02160131  RH  058%=      5-min Rain = 0
KAD1 141425Z 32012KT 21/14 A3031 RMK A01 T02100138  RH  063%=      5-min Rain = 0
KAD1 141426Z 32010KT 20/14 A3031 RMK A01 T02040139  RH  066%=      5-min Rain = 0
KAD1 141427Z 31010KT 20/14 A3031 RMK A01 T02000142  RH  069%=      5-min Rain = 0
KAD1 141428Z 31011KT 20/14 A3031 RMK A01 T01960142  RH  071%=      5-min Rain = 0
KAD1 141429Z 31010KT 19/14 A3031 RMK A01 T01940143  RH  072%=      5-min Rain = 0
KAD1 141430Z 31009KT 19/14 A3031 RMK A01 T01910144  RH  074%=      5-min Rain = 0
KAD1 141431Z 32010KT 19/15 A3031 RMK A01 T01890146  RH  076%=      5-min Rain = 0
KAD1 141432Z 32011KT 19/15 A3031 RMK A01 T01870147  RH  077%=      5-min Rain = 0
KAD1 141433Z 32011KT 19/15 A3031 RMK A01 T01850147  RH  078%=      5-min Rain = 0
KAD1 141434Z 32012KT 18/15 A3031 RMK A01 T01840147  RH  079%=      5-min Rain = 0
KAD1 141435Z 32012KT 18/15 A3031 RMK A01 T01820148  RH  080%=      5-min Rain = 0
KAD1 141436Z 31012KT 18/15 A3031 RMK A01 T01810149  RH  082%=      5-min Rain = 0
KAD1 141437Z 31011KT 18/15 A3031 RMK A01 T01810151  RH  083%=      5-min Rain = 0
KAD1 141438Z 30013KT 18/15 A3032 RMK A01 T01800149  RH  082%=      5-min Rain = 0
KAD1 141439Z 31011KT 18/15 A3032 RMK A01 T01780149  RH  083%=      5-min Rain = 0
KAD1 141440Z 32012KT 18/15 A3032 RMK A01 T01770149  RH  083%=      5-min Rain = 0
KAD1 141441Z 32012KT 18/15 A3032 RMK A01 T01770149  RH  084%=      5-min Rain = 0
KAD1 141442Z 33013KT 18/15 A3032 RMK A01 T01770148  RH  083%=      5-min Rain = 0
KAD1 141443Z 33014KT 18/15 A3032 RMK A01 T01770148  RH  083%=      5-min Rain = 0
KAD1 141444Z 32013KT 18/15 A3032 RMK A01 T01770149  RH  083%=      5-min Rain = 0
KAD1 141445Z 32013KT 18/15 A3032 RMK A01 T01760149  RH  084%=      5-min Rain = 0
KAD1 141446Z 32012KT 18/15 A3032 RMK A01 T01760150  RH  085%=      5-min Rain = 0
KAD1 141447Z 33011KT 18/15 A3032 RMK A01 T01770152  RH  085%=      5-min Rain = 0
KAD1 141448Z 32012KT 18/15 A3032 RMK A01 T01780153  RH  085%=      5-min Rain = 0
KAD1 141449Z 33013KT 18/15 A3032 RMK A01 T01790153  RH  084%=      5-min Rain = 0
KAD1 141450Z 32012KT 18/15 A3032 RMK A01 T01800152  RH  084%=      5-min Rain = 0
KAD1 141451Z 32014KT 18/15 A3032 RMK A01 T01810150  RH  082%=      5-min Rain = 0
KAD1 141452Z 33014KT 18/15 A3032 RMK A01 T01800150  RH  083%=      5-min Rain = 0
KAD1 141453Z 32013KT 18/15 A3032 RMK A01 T01790149  RH  083%=      5-min Rain = 0
KAD1 141454Z 32014KT 18/15 A3032 RMK A01 T01780149  RH  083%=      5-min Rain = 0
KAD1 141455Z 32014KT 18/15 A3032 RMK A01 T01790149  RH  083%=      5-min Rain = 0
KAD1 141456Z 32014KT 18/15 A3032 RMK A01 T01790148  RH  082%=      5-min Rain = 0
KAD1 141457Z 32012KT 18/15 A3032 RMK A01 T01790149  RH  083%=      5-min Rain = 0
KAD1 141458Z 33014KT 18/15 A3032 RMK A01 T01800150  RH  082%=      5-min Rain = 0
KAD1 141459Z 33013KT 18/15 A3032 RMK A01 T01790148  RH  082%=      5-min Rain = 0
KAD1 141500Z 33011KT 18/15 A3032 RMK A01 T01770147  RH  082%=      5-min Rain = 0
KAD1 141501Z 33012KT 18/15 A3032 RMK A01 T01770147  RH  083%=      5-min Rain = 0
KAD1 141502Z 34012KT 18/15 A3032 RMK A01 T01760148  RH  083%=      5-min Rain = 0
KAD1 141503Z 34010KT 18/15 A3032 RMK A01 T01760150  RH  085%=      5-min Rain = 0
KAD1 141504Z 34010KT 18/15 A3032 RMK A01 T01770152  RH  085%=      5-min Rain = 0
KAD1 141505Z 34011KT 18/15 A3032 RMK A01 T01780151  RH  084%=      5-min Rain = 0
KAD1 141506Z 33013KT 18/15 A3033 RMK A01 T01780149  RH  083%=      5-min Rain = 0
KAD1 141507Z 34011KT 18/15 A3033 RMK A01 T01780150  RH  083%=      5-min Rain = 0
KAD1 141508Z 33012KT 18/15 A3033 RMK A01 T01790151  RH  083%=      5-min Rain = 0
KAD1 141509Z 33014KT 18/15 A3033 RMK A01 T01810151  RH  083%=      5-min Rain = 0
KAD1 141510Z 33012KT 18/15 A3033 RMK A01 T01810149  RH  082%=      5-min Rain = 0
KAD1 141511Z 34010KT 18/15 A3033 RMK A01 T01800151  RH  083%=      5-min Rain = 0
KAD1 141512Z 33011KT 18/15 A3033 RMK A01 T01800151  RH  083%=      5-min Rain = 0
KAD1 141513Z 33011KT 18/15 A3033 RMK A01 T01800151  RH  083%=      5-min Rain = 0
KAD1 141514Z 34011KT 18/15 A3033 RMK A01 T01800150  RH  082%=      5-min Rain = 0
KAD1 141515Z 34010KT 18/15 A3033 RMK A01 T01820151  RH  082%=      5-min Rain = 0
KAD1 141516Z 34010KT 18/15 A3033 RMK A01 T01840154  RH  083%=      5-min Rain = 0
KAD1 141517Z 34010KT 19/15 A3033 RMK A01 T01860154  RH  081%=      5-min Rain = 0
KAD1 141518Z 34010KT 19/15 A3033 RMK A01 T01880153  RH  080%=      5-min Rain = 0
KAD1 141519Z 34010KT 19/15 A3033 RMK A01 T01890154  RH  080%=      5-min Rain = 0
KAD1 141520Z 33010KT 19/16 A3033 RMK A01 T01910156  RH  080%=      5-min Rain = 0
KAD1 141521Z 34010KT 19/15 A3033 RMK A01 T01920154  RH  079%=      5-min Rain = 0
KAD1 141522Z 34011KT 19/15 A3033 RMK A01 T01910153  RH  079%=      5-min Rain = 0
KAD1 141523Z 34010KT 19/15 A3033 RMK A01 T01910153  RH  079%=      5-min Rain = 0
KAD1 141524Z 34010KT 19/15 A3033 RMK A01 T01910154  RH  079%=      5-min Rain = 0
KAD1 141525Z 34010KT 19/16 A3033 RMK A01 T01930155  RH  078%=      5-min Rain = 0
KAD1 141526Z 34011KT 19/15 A3033 RMK A01 T01940154  RH  078%=      5-min Rain = 0
KAD1 141527Z 35009KT 19/15 A3033 RMK A01 T01930154  RH  078%=      5-min Rain = 0
KAD1 141528Z 33009KT 19/16 A3033 RMK A01 T01940156  RH  079%=      5-min Rain = 0
KAD1 141529Z 34010KT 20/16 A3033 RMK A01 T01970158  RH  078%=      5-min Rain = 0
KAD1 141530Z 36009KT 20/16 A3033 RMK A01 T01990156  RH  076%=      5-min Rain = 0
KAD1 141531Z 36008KT 20/16 A3033 RMK A01 T02010160  RH  077%=      5-min Rain = 0
KAD1 141532Z 35008KT 20/16 A3033 RMK A01 T02040162  RH  077%=      5-min Rain = 0
KAD1 141533Z 35010KT 21/16 A3033 RMK A01 T02060159  RH  075%=      5-min Rain = 0
KAD1 141534Z 36008KT 21/16 A3033 RMK A01 T02050157  RH  074%=      5-min Rain = 0
KAD1 141535Z 35008KT 20/16 A3033 RMK A01 T02040161  RH  076%=      5-min Rain = 0
KAD1 141536Z 00009KT 20/16 A3032 RMK A01 T02040160  RH  076%=      5-min Rain = 0
KAD1 141537Z 00011KT 20/16 A3032 RMK A01 T02040156  RH  074%=      5-min Rain = 0
KAD1 141538Z 00010KT 20/16 A3033 RMK A01 T02030156  RH  074%=      5-min Rain = 0
KAD1 141539Z 36009KT 20/16 A3033 RMK A01 T02030158  RH  075%=      5-min Rain = 0
KAD1 141540Z 01008KT 20/16 A3033 RMK A01 T02040157  RH  074%=      5-min Rain = 0
KAD1 141541Z 00007KT 20/16 A3033 RMK A01 T02040159  RH  075%=      5-min Rain = 0
KAD1 141542Z 36006KT 21/16 A3033 RMK A01 T02050162  RH  076%=      5-min Rain = 0
KAD1 141543Z 00009KT 21/16 A3033 RMK A01 T02060160  RH  075%=      5-min Rain = 0
KAD1 141544Z 01009KT 21/16 A3033 RMK A01 T02060157  RH  073%=      5-min Rain = 0
KAD1 141545Z 36009KT 21/16 A3033 RMK A01 T02070158  RH  073%=      5-min Rain = 0
KAD1 141546Z 35007KT 21/16 A3033 RMK A01 T02060156  RH  073%=      5-min Rain = 0
KAD1 141547Z 36009KT 21/16 A3033 RMK A01 T02060156  RH  073%=      5-min Rain = 0
KAD1 141548Z 35007KT 21/16 A3033 RMK A01 T02070156  RH  073%=      5-min Rain = 0
KAD1 141549Z 35007KT 21/16 A3033 RMK A01 T02080157  RH  073%=      5-min Rain = 0
KAD1 141550Z 35007KT 21/16 A3033 RMK A01 T02090156  RH  072%=      5-min Rain = 0
KAD1 141551Z 34008KT 21/16 A3033 RMK A01 T02090160  RH  073%=      5-min Rain = 0
KAD1 141552Z 35009KT 21/16 A3033 RMK A01 T02100159  RH  073%=      5-min Rain = 0
KAD1 141553Z 35009KT 21/16 A3033 RMK A01 T02100158  RH  072%=      5-min Rain = 0
KAD1 141554Z 35010KT 21/16 A3034 RMK A01 T02100156  RH  071%=      5-min Rain = 0
KAD1 141555Z 36011KT 21/15 A3034 RMK A01 T02100153  RH  070%=      5-min Rain = 0
KAD1 141556Z 36012KT 21/15 A3034 RMK A01 T02100153  RH  070%=      5-min Rain = 0
KAD1 141557Z 36012KT 21/15 A3034 RMK A01 T02100152  RH  069%=      5-min Rain = 0
KAD1 141558Z 35012KT 21/15 A3034 RMK A01 T02100147  RH  067%=      5-min Rain = 0
KAD1 141559Z 35012KT 21/15 A3035 RMK A01 T02110147  RH  067%=      5-min Rain = 0
KAD1 141600Z 35015KT 21/14 A3035 RMK A01 T02110143  RH  065%=      5-min Rain = 0
KAD1 141601Z 35013KT 21/14 A3035 RMK A01 T02120143  RH  065%=      5-min Rain = 0
KAD1 141602Z 35012KT 21/14 A3035 RMK A01 T02120144  RH  065%=      5-min Rain = 0
KAD1 141603Z 35010KT 21/14 A3034 RMK A01 T02120144  RH  065%=      5-min Rain = 0
KAD1 141604Z 35010KT 21/14 A3034 RMK A01 T02130144  RH  065%=      5-min Rain = 0
KAD1 141605Z 35013KT 21/14 A3034 RMK A01 T02140144  RH  064%=      5-min Rain = 0
KAD1 141606Z 36015KT 21/15 A3034 RMK A01 T02140149  RH  067%=      5-min Rain = 0
KAD1 141607Z 36014KT 21/15 A3035 RMK A01 T02110153  RH  069%=      5-min Rain = 0
KAD1 141608Z 01015KT 21/15 A3035 RMK A01 T02100153  RH  070%=      5-min Rain = 0
KAD1 141609Z 00014KT 21/16 A3035 RMK A01 T02090156  RH  072%=      5-min Rain = 0
KAD1 141610Z 00016KT 21/16 A3035 RMK A01 T02110157  RH  071%=      5-min Rain = 0
KAD1 141611Z 36015KT 21/16 A3035 RMK A01 T02120155  RH  070%=      5-min Rain = 0
KAD1 141612Z 36016KT 21/16 A3035 RMK A01 T02120155  RH  070%=      5-min Rain = 0
KAD1 141613Z 35016KT 21/15 A3035 RMK A01 T02100154  RH  070%=      5-min Rain = 0
KAD1 141614Z 01015KT 21/15 A3035 RMK A01 T02080153  RH  071%=      5-min Rain = 0
KAD1 141615Z 00014KT 21/15 A3035 RMK A01 T02060154  RH  072%=      5-min Rain = 0
KAD1 141616Z 01015KT 21/15 A3035 RMK A01 T02060151  RH  070%=      5-min Rain = 0
KAD1 141617Z 02013KT 21/15 A3035 RMK A01 T02050147  RH  069%=      5-min Rain = 0
KAD1 141618Z 01012KT 21/15 A3034 RMK A01 T02050151  RH  071%=      5-min Rain = 0
KAD1 141619Z 02013KT 21/15 A3034 RMK A01 T02060150  RH  071%=      5-min Rain = 0
KAD1 141620Z 02013KT 21/15 A3034 RMK A01 T02050151  RH  071%=      5-min Rain = 0
KAD1 141621Z 03013KT 20/15 A3034 RMK A01 T02040149  RH  071%=      5-min Rain = 0
KAD1 141622Z 03012KT 20/15 A3034 RMK A01 T02030147  RH  070%=      5-min Rain = 0
KAD1 141623Z 02011KT 20/15 A3034 RMK A01 T02030150  RH  071%=      5-min Rain = 0
KAD1 141624Z 02010KT 21/15 A3034 RMK A01 T02050151  RH  071%=      5-min Rain = 0
KAD1 141625Z 02013KT 21/15 A3034 RMK A01 T02050147  RH  069%=      5-min Rain = 0
KAD1 141626Z 03011KT 21/15 A3034 RMK A01 T02050148  RH  070%=      5-min Rain = 0
KAD1 141627Z 03010KT 21/15 A3034 RMK A01 T02050148  RH  070%=      5-min Rain = 0
KAD1 141628Z 04010KT 21/15 A3034 RMK A01 T02060152  RH  071%=      5-min Rain = 0
KAD1 141629Z 04009KT 21/15 A3034 RMK A01 T02070149  RH  069%=      5-min Rain = 0
KAD1 141630Z 04011KT 21/15 A3034 RMK A01 T02060147  RH  069%=      5-min Rain = 0
KAD1 141631Z 03009KT 21/14 A3034 RMK A01 T02060144  RH  067%=      5-min Rain = 0
KAD1 141632Z 02009KT 21/14 A3034 RMK A01 T02060143  RH  067%=      5-min Rain = 0
KAD1 141633Z 02008KT 21/14 A3034 RMK A01 T02060143  RH  067%=      5-min Rain = 0
KAD1 141634Z 01008KT 21/15 A3034 RMK A01 T02060149  RH  070%=      5-min Rain = 0
KAD1 141635Z 01007KT 21/15 A3034 RMK A01 T02070148  RH  069%=      5-min Rain = 0
KAD1 141636Z 02009KT 21/15 A3034 RMK A01 T02080145  RH  067%=      5-min Rain = 0
KAD1 141637Z 01009KT 21/15 A3034 RMK A01 T02080146  RH  068%=      5-min Rain = 0
KAD1 141638Z 00009KT 21/15 A3034 RMK A01 T02090147  RH  068%=      5-min Rain = 0
KAD1 141639Z 02009KT 21/14 A3034 RMK A01 T02090143  RH  066%=      5-min Rain = 0
KAD1 141640Z 01008KT 21/15 A3034 RMK A01 T02110148  RH  067%=      5-min Rain = 0
KAD1 141641Z 35009KT 21/14 A3034 RMK A01 T02130143  RH  064%=      5-min Rain = 0
KAD1 141642Z 36010KT 21/14 A3035 RMK A01 T02130143  RH  064%=      5-min Rain = 0
KAD1 141643Z 35010KT 21/14 A3035 RMK A01 T02120144  RH  065%=      5-min Rain = 0
KAD1 141644Z 34011KT 21/15 A3035 RMK A01 T02130146  RH  065%=      5-min Rain = 0
KAD1 141645Z 34010G15KT 21/15 A3035 RMK A01 T02140146  RH  065%=      5-min Rain = 0
KAD1 141646Z 35013KT 21/14 A3035 RMK A01 T02140144  RH  064%=      5-min Rain = 0
KAD1 141647Z 35012KT 21/14 A3036 RMK A01 T02130144  RH  065%=      5-min Rain = 0
KAD1 141648Z 35014KT 21/15 A3036 RMK A01 T02110145  RH  066%=      5-min Rain = 0
KAD1 141649Z 35012KT 21/14 A3036 RMK A01 T02100144  RH  066%=      5-min Rain = 0
KAD1 141650Z 36013KT 21/14 A3036 RMK A01 T02100144  RH  066%=      5-min Rain = 0
KAD1 141651Z 01011KT 21/15 A3036 RMK A01 T02100146  RH  067%=      5-min Rain = 0
KAD1 141652Z 01013KT 21/15 A3036 RMK A01 T02090147  RH  068%=      5-min Rain = 0
KAD1 141653Z 36009KT 21/15 A3036 RMK A01 T02090146  RH  067%=      5-min Rain = 0
KAD1 141654Z 36011KT 21/15 A3036 RMK A01 T02080147  RH  068%=      5-min Rain = 0
KAD1 141655Z 36011KT 21/15 A3036 RMK A01 T02090145  RH  067%=      5-min Rain = 0
KAD1 141656Z 00009KT 21/15 A3036 RMK A01 T02080146  RH  067%=      5-min Rain = 0
KAD1 141657Z 34009KT 21/15 A3036 RMK A01 T02080146  RH  067%=      5-min Rain = 0
KAD1 141658Z 35009KT 21/15 A3036 RMK A01 T02080145  RH  067%=      5-min Rain = 0
KAD1 141659Z 36010KT 21/15 A3036 RMK A01 T02080149  RH  069%=      5-min Rain = 0
KAD1 141700Z 35011KT 21/15 A3036 RMK A01 T02070151  RH  070%=      5-min Rain = 0
KAD1 141701Z 35009KT 21/15 A3036 RMK A01 T02060152  RH  071%=      5-min Rain = 0
KAD1 141702Z 35008KT 20/15 A3036 RMK A01 T02040153  RH  072%=      5-min Rain = 0
KAD1 141703Z 35008KT 20/15 A3036 RMK A01 T02030153  RH  073%=      5-min Rain = 0
KAD1 141704Z 35009KT 20/16 A3036 RMK A01 T02020155  RH  074%=      5-min Rain = 0
KAD1 141705Z 00010KT 20/16 A3036 RMK A01 T02010156  RH  075%=      5-min Rain = 0
KAD1 141706Z 01009KT 20/16 A3036 RMK A01 T02000156  RH  076%=      5-min Rain = 0
KAD1 141707Z 02009KT 20/16 A3036 RMK A01 T01980155  RH  076%=      5-min Rain = 0
KAD1 141708Z 03008KT 20/16 A3036 RMK A01 T01980155  RH  076%=      5-min Rain = 0
KAD1 141709Z 03008KT 20/16 A3035 RMK A01 T01980158  RH  078%=      5-min Rain = 0
KAD1 141710Z 03009KT 20/16 A3035 RMK A01 T01980160  RH  079%=      5-min Rain = 0
KAD1 141711Z 02009KT 20/16 A3035 RMK A01 T01980160  RH  079%=      5-min Rain = 0
KAD1 141712Z 02010KT 20/16 A3035 RMK A01 T01970160  RH  079%=      5-min Rain = 0
KAD1 141713Z 01010KT 20/16 A3035 RMK A01 T01970161  RH  080%=      5-min Rain = 0
KAD1 141714Z 02009KT 20/16 A3035 RMK A01 T01970161  RH  080%=      5-min Rain = 0.01
KAD1 141715Z 02009KT 20/16 A3035 RMK A01 T01970161  RH  080%=      5-min Rain = 0
KAD1 141716Z 01006KT 20/17 A3035 RMK A01 T01970165  RH  082%=      5-min Rain = 0
KAD1 141717Z 02006KT 20/17 A3035 RMK A01 T01970166  RH  083%=      5-min Rain = 0
KAD1 141718Z 03005KT 20/17 A3035 RMK A01 T01970165  RH  082%=      5-min Rain = 0
KAD1 141719Z 02006KT 20/17 A3035 RMK A01 T01970166  RH  082%=      5-min Rain = 0
KAD1 141720Z 02006KT 20/17 A3034 RMK A01 T01970165  RH  082%=      5-min Rain = 0
KAD1 141721Z 01006KT 20/17 A3034 RMK A01 T01980165  RH  081%=      5-min Rain = 0
KAD1 141722Z 02005KT 20/16 A3035 RMK A01 T01980163  RH  080%=      5-min Rain = 0
KAD1 141723Z 01006KT 20/16 A3035 RMK A01 T01980164  RH  081%=      5-min Rain = 0
KAD1 141724Z 01005KT 20/16 A3035 RMK A01 T01990164  RH  080%=      5-min Rain = 0
KAD1 141725Z 02006KT 20/16 A3035 RMK A01 T01990164  RH  081%=      5-min Rain = 0
KAD1 141726Z 02005KT 20/17 A3035 RMK A01 T01990165  RH  081%=      5-min Rain = 0
KAD1 141727Z 02004KT 20/16 A3035 RMK A01 T01990163  RH  080%=      5-min Rain = 0
KAD1 141728Z 03005KT 20/16 A3035 RMK A01 T01990164  RH  080%=      5-min Rain = 0
KAD1 141729Z 03005KT 20/16 A3034 RMK A01 T02000164  RH  080%=      5-min Rain = 0
KAD1 141730Z 04006KT 20/17 A3034 RMK A01 T01990166  RH  081%=      5-min Rain = 0
KAD1 141731Z 04006KT 20/17 A3034 RMK A01 T02000165  RH  080%=      5-min Rain = 0
KAD1 141732Z 04006KT 20/17 A3034 RMK A01 T01990165  RH  081%=      5-min Rain = 0
KAD1 141733Z 04005KT 20/17 A3034 RMK A01 T02000167  RH  081%=      5-min Rain = 0
KAD1 141734Z 04006KT 20/17 A3034 RMK A01 T02000169  RH  083%=      5-min Rain = 0
KAD1 141735Z 03006KT 20/17 A3034 RMK A01 T02010166  RH  080%=      5-min Rain = 0
KAD1 141736Z 04005KT 20/17 A3034 RMK A01 T02010168  RH  081%=      5-min Rain = 0
KAD1 141737Z 04005KT 20/17 A3034 RMK A01 T02000169  RH  082%=      5-min Rain = 0
KAD1 141738Z 04006KT 20/17 A3034 RMK A01 T02000167  RH  081%=      5-min Rain = 0
KAD1 141739Z 05006KT 20/17 A3034 RMK A01 T02010166  RH  080%=      5-min Rain = 0
KAD1 141740Z 06005KT 20/17 A3034 RMK A01 T02010167  RH  081%=      5-min Rain = 0
KAD1 141741Z 05004KT 20/17 A3033 RMK A01 T02030169  RH  081%=      5-min Rain = 0
KAD1 141742Z 06004KT 20/17 A3033 RMK A01 T02040170  RH  081%=      5-min Rain = 0
KAD1 141743Z 06006KT 21/17 A3033 RMK A01 T02060171  RH  080%=      5-min Rain = 0
KAD1 141744Z 06006KT 21/17 A3032 RMK A01 T02070171  RH  080%=      5-min Rain = 0
KAD1 141745Z 06006KT 21/17 A3032 RMK A01 T02090173  RH  080%=      5-min Rain = 0
KAD1 141746Z 06008KT 21/17 A3032 RMK A01 T02090173  RH  080%=      5-min Rain = 0
KAD1 141747Z 06007KT 21/17 A3032 RMK A01 T02110170  RH  077%=      5-min Rain = 0
KAD1 141748Z 07006KT 21/17 A3032 RMK A01 T02110168  RH  076%=      5-min Rain = 0
KAD1 141749Z 08006KT 21/17 A3032 RMK A01 T02110169  RH  077%=      5-min Rain = 0
KAD1 141750Z 08009KT 21/17 A3032 RMK A01 T02130170  RH  076%=      5-min Rain = 0
KAD1 141751Z 08006KT 22/17 A3032 RMK A01 T02150169  RH  075%=      5-min Rain = 0
KAD1 141752Z 09006KT 22/17 A3031 RMK A01 T02150166  RH  073%=      5-min Rain = 0
KAD1 141753Z 11005KT 22/17 A3031 RMK A01 T02150166  RH  074%=      5-min Rain = 0
KAD1 141754Z 10006KT 22/17 A3031 RMK A01 T02150165  RH  073%=      5-min Rain = 0
KAD1 141755Z 11007KT 22/17 A3031 RMK A01 T02150165  RH  073%=      5-min Rain = 0
KAD1 141756Z 11005KT 21/16 A3031 RMK A01 T02130163  RH  073%=      5-min Rain = 0
KAD1 141757Z 09006KT 21/16 A3031 RMK A01 T02120163  RH  074%=      5-min Rain = 0
KAD1 141758Z 08006KT 21/16 A3031 RMK A01 T02130163  RH  073%=      5-min Rain = 0
KAD1 141759Z 08005KT 21/16 A3031 RMK A01 T02140160  RH  071%=      5-min Rain = 0
KAD1 141800Z 07007KT 22/17 A3031 RMK A01 T02150165  RH  073%=      5-min Rain = 0
KAD1 141801Z 07006KT 22/17 A3031 RMK A01 T02180170  RH  074%=      5-min Rain = 0
KAD1 141802Z 06008KT 22/17 A3031 RMK A01 T02200166  RH  072%=      5-min Rain = 0
KAD1 141803Z 08008KT 22/16 A3031 RMK A01 T02200164  RH  070%=      5-min Rain = 0
KAD1 141804Z 06008KT 22/17 A303 RMK A01 T02190167  RH  072%=      5-min Rain = 0
KAD1 141805Z 08008KT 22/17 A303 RMK A01 T02190166  RH  072%=      5-min Rain = 0
KAD1 141806Z 09009KT 22/17 A303 RMK A01 T02200168  RH  072%=      5-min Rain = 0
KAD1 141807Z 10007KT 22/17 A303 RMK A01 T02210168  RH  072%=      5-min Rain = 0
KAD1 141808Z 08007KT 22/17 A303 RMK A01 T02220168  RH  072%=      5-min Rain = 0
KAD1 141809Z 08006KT 22/17 A303 RMK A01 T02220165  RH  070%=      5-min Rain = 0
KAD1 141810Z 09008KT 22/17 A3029 RMK A01 T02220165  RH  070%=      5-min Rain = 0
KAD1 141811Z 11009KT 22/16 A3029 RMK A01 T02220162  RH  069%=      5-min Rain = 0
KAD1 141812Z 11008KT 22/17 A3029 RMK A01 T02220165  RH  070%=      5-min Rain = 0
KAD1 141813Z 09007KT 22/16 A3029 RMK A01 T02220162  RH  069%=      5-min Rain = 0
KAD1 141814Z 10008KT 22/16 A3029 RMK A01 T02220163  RH  069%=      5-min Rain = 0
KAD1 141815Z 11007KT 22/17 A3029 RMK A01 T02240166  RH  070%=      5-min Rain = 0
KAD1 141816Z 09006KT 22/16 A3029 RMK A01 T02240160  RH  067%=      5-min Rain = 0
KAD1 141817Z 10006KT 22/16 A3029 RMK A01 T02240159  RH  067%=      5-min Rain = 0
KAD1 141818Z 10006KT 22/16 A3029 RMK A01 T02230156  RH  065%=      5-min Rain = 0
KAD1 141819Z 10006KT 22/15 A3029 RMK A01 T02230154  RH  065%=      5-min Rain = 0
KAD1 141820Z 11006KT 23/16 A3029 RMK A01 T02250158  RH  066%=      5-min Rain = 0
KAD1 141821Z 12005KT 23/16 A3028 RMK A01 T02250157  RH  065%=      5-min Rain = 0
KAD1 141822Z 12005KT 23/16 A3028 RMK A01 T02270158  RH  065%=      5-min Rain = 0
KAD1 141823Z 12006KT 23/16 A3028 RMK A01 T02280156  RH  064%=      5-min Rain = 0
KAD1 141824Z 13007KT 23/16 A3028 RMK A01 T02280160  RH  065%=      5-min Rain = 0
KAD1 141825Z 14006KT 23/16 A3029 RMK A01 T02280156  RH  063%=      5-min Rain = 0
KAD1 141826Z 13005KT 23/15 A3029 RMK A01 T02280154  RH  063%=      5-min Rain = 0
KAD1 141827Z 13004KT 23/15 A3029 RMK A01 T02290152  RH  062%=      5-min Rain = 0
KAD1 141828Z 15004KT 23/15 A3029 RMK A01 T02300152  RH  061%=      5-min Rain = 0
KAD1 141829Z 15005KT 23/16 A3029 RMK A01 T02320157  RH  063%=      5-min Rain = 0
KAD1 141830Z 15005KT 23/16 A3028 RMK A01 T02340160  RH  063%=      5-min Rain = 0
KAD1 141831Z 16004KT 24/16 A3028 RMK A01 T02350160  RH  063%=      5-min Rain = 0
KAD1 141832Z 16004KT 24/16 A3028 RMK A01 T02350159  RH  062%=      5-min Rain = 0
KAD1 141833Z 14003KT 24/16 A3028 RMK A01 T02350161  RH  063%=      5-min Rain = 0
KAD1 141834Z 14004KT 24/16 A3028 RMK A01 T02360163  RH  064%=      5-min Rain = 0
KAD1 141835Z 15005KT 24/16 A3028 RMK A01 T02380160  RH  062%=      5-min Rain = 0
KAD1 141836Z 16004KT 24/16 A3028 RMK A01 T02400161  RH  061%=      5-min Rain = 0
KAD1 141837Z 14003KT 24/16 A3028 RMK A01 T02410155  RH  059%=      5-min Rain = 0
KAD1 141838Z 14003KT 24/16 A3028 RMK A01 T02410159  RH  060%=      5-min Rain = 0
KAD1 141839Z 15004KT 24/16 A3028 RMK A01 T02410162  RH  061%=      5-min Rain = 0
KAD1 141840Z 15003KT 24/16 A3028 RMK A01 T02410158  RH  060%=      5-min Rain = 0
KAD1 141841Z 16004KT 24/15 A3028 RMK A01 T02420149  RH  056%=      5-min Rain = 0
KAD1 141842Z 16003KT 24/14 A3028 RMK A01 T02430143  RH  053%=      5-min Rain = 0
KAD1 141843Z 18004KT 25/15 A3028 RMK A01 T02450150  RH  055%=      5-min Rain = 0
KAD1 141844Z 16004KT 25/15 A3028 RMK A01 T02450147  RH  054%=      5-min Rain = 0
KAD1 141845Z 17003KT 25/15 A3028 RMK A01 T02460152  RH  056%=      5-min Rain = 0
KAD1 141846Z 16003KT 25/16 A3028 RMK A01 T02480159  RH  058%=      5-min Rain = 0
KAD1 141847Z 16005KT 25/16 A3028 RMK A01 T02500159  RH  057%=      5-min Rain = 0
KAD1 141848Z 16005KT 25/16 A3028 RMK A01 T02510162  RH  058%=      5-min Rain = 0
KAD1 141849Z 16004KT 25/16 A3028 RMK A01 T02510155  RH  055%=      5-min Rain = 0
KAD1 141850Z 17003KT 25/16 A3028 RMK A01 T02500155  RH  056%=      5-min Rain = 0
KAD1 141851Z 17004KT 25/16 A3028 RMK A01 T02500160  RH  058%=      5-min Rain = 0
KAD1 141852Z 21004KT 25/16 A3027 RMK A01 T02510155  RH  055%=      5-min Rain = 0
KAD1 141853Z 20004KT 26/16 A3027 RMK A01 T02550157  RH  055%=      5-min Rain = 0
KAD1 141854Z 20004KT 26/16 A3027 RMK A01 T02580159  RH  054%=      5-min Rain = 0
KAD1 141855Z 18005KT 26/15 A3027 RMK A01 T02570154  RH  053%=      5-min Rain = 0
KAD1 141856Z 20003KT 26/16 A3027 RMK A01 T02560156  RH  054%=      5-min Rain = 0
KAD1 141857Z 21001KT 26/15 A3027 RMK A01 T02550154  RH  053%=      5-min Rain = 0
KAD1 141858Z 22001KT 26/16 A3027 RMK A01 T02550158  RH  055%=      5-min Rain = 0
KAD1 141859Z 18003KT 26/16 A3027 RMK A01 T02570161  RH  055%=      5-min Rain = 0
KAD1 141900Z 18003KT 26/16 A3027 RMK A01 T02570158  RH  054%=      5-min Rain = 0
KAD1 141901Z 25005KT 26/16 A3027 RMK A01 T02570160  RH  055%=      5-min Rain = 0
KAD1 141902Z 25006KT 26/15 A3027 RMK A01 T02590154  RH  052%=      5-min Rain = 0
KAD1 141903Z 24007KT 26/16 A3027 RMK A01 T02600157  RH  053%=      5-min Rain = 0
KAD1 141904Z 24009KT 27/15 A3027 RMK A01 T02650152  RH  050%=      5-min Rain = 0
KAD1 141905Z 23008KT 27/15 A3027 RMK A01 T02660145  RH  047%=      5-min Rain = 0
KAD1 141906Z 25007KT 27/15 A3027 RMK A01 T02660150  RH  049%=      5-min Rain = 0
KAD1 141907Z 25008KT 27/15 A3027 RMK A01 T02690154  RH  049%=      5-min Rain = 0
KAD1 141908Z 26009KT 27/16 A3027 RMK A01 T02680156  RH  050%=      5-min Rain = 0
KAD1 141909Z 24009KT 27/16 A3027 RMK A01 T02670155  RH  050%=      5-min Rain = 0
KAD1 141910Z 24008KT 27/16 A3027 RMK A01 T02660157  RH  051%=      5-min Rain = 0
KAD1 141911Z 23007KT 27/16 A3027 RMK A01 T02660155  RH  051%=      5-min Rain = 0
KAD1 141912Z 26007KT 26/16 A3027 RMK A01 T02640158  RH  052%=      5-min Rain = 0
KAD1 141913Z 27009KT 26/16 A3027 RMK A01 T02630159  RH  053%=      5-min Rain = 0
KAD1 141914Z 28008KT 26/17 A3027 RMK A01 T02620165  RH  055%=      5-min Rain = 0
KAD1 141915Z 28007KT 26/17 A3027 RMK A01 T02620168  RH  056%=      5-min Rain = 0
KAD1 141916Z 26011KT 26/17 A3027 RMK A01 T02640171  RH  057%=      5-min Rain = 0
KAD1 141917Z 26009KT 26/17 A3027 RMK A01 T02640166  RH  055%=      5-min Rain = 0
KAD1 141918Z 27007KT 26/16 A3027 RMK A01 T02620162  RH  054%=      5-min Rain = 0
KAD1 141919Z 28009KT 26/17 A3027 RMK A01 T02610168  RH  056%=      5-min Rain = 0
KAD1 141920Z 27008KT 26/17 A3027 RMK A01 T02620172  RH  058%=      5-min Rain = 0
KAD1 141921Z 28007KT 26/17 A3027 RMK A01 T02640173  RH  057%=      5-min Rain = 0
KAD1 141922Z 27010KT 27/17 A3027 RMK A01 T02650170  RH  056%=      5-min Rain = 0
KAD1 141923Z 27008KT 27/18 A3027 RMK A01 T02650176  RH  058%=      5-min Rain = 0
KAD1 141924Z 25009KT 27/17 A3027 RMK A01 T02670171  RH  056%=      5-min Rain = 0
KAD1 141925Z 27009KT 27/16 A3027 RMK A01 T02670160  RH  052%=      5-min Rain = 0
KAD1 141926Z 27008KT 27/16 A3027 RMK A01 T02660164  RH  053%=      5-min Rain = 0
KAD1 141927Z 28009KT 27/18 A3027 RMK A01 T02660175  RH  057%=      5-min Rain = 0
KAD1 141928Z 27009KT 26/17 A3027 RMK A01 T02640174  RH  057%=      5-min Rain = 0
KAD1 141929Z 26011KT 26/18 A3027 RMK A01 T02630178  RH  060%=      5-min Rain = 0
KAD1 141930Z 26009KT 26/18 A3027 RMK A01 T02630175  RH  058%=      5-min Rain = 0
KAD1 141931Z 26009KT 26/17 A3026 RMK A01 T02640166  RH  055%=      5-min Rain = 0
KAD1 141932Z 26010KT 26/17 A3026 RMK A01 T02640167  RH  055%=      5-min Rain = 0
KAD1 141933Z 27007KT 26/16 A3026 RMK A01 T02640160  RH  053%=      5-min Rain = 0
KAD1 141934Z 26008KT 26/16 A3026 RMK A01 T02630164  RH  054%=      5-min Rain = 0
KAD1 141935Z 26010KT 26/17 A3026 RMK A01 T02640170  RH  056%=      5-min Rain = 0
KAD1 141936Z 26010KT 27/17 A3026 RMK A01 T02660165  RH  054%=      5-min Rain = 0
KAD1 141937Z 26007KT 27/16 A3026 RMK A01 T02670159  RH  052%=      5-min Rain = 0
KAD1 141938Z 27009KT 27/16 A3026 RMK A01 T02690156  RH  050%=      5-min Rain = 0
KAD1 141939Z 26009KT 27/16 A3026 RMK A01 T02700156  RH  050%=      5-min Rain = 0
KAD1 141940Z 27009KT 27/16 A3026 RMK A01 T02690162  RH  052%=      5-min Rain = 0
KAD1 141941Z 27007KT 27/16 A3026 RMK A01 T02660163  RH  053%=      5-min Rain = 0
KAD1 141942Z 27007KT 27/16 A3026 RMK A01 T02660162  RH  053%=      5-min Rain = 0
KAD1 141943Z 28007KT 27/16 A3026 RMK A01 T02650158  RH  052%=      5-min Rain = 0
KAD1 141944Z 27010KT 27/15 A3026 RMK A01 T02660153  RH  050%=      5-min Rain = 0
KAD1 141945Z 27006KT 27/16 A3026 RMK A01 T02660157  RH  051%=      5-min Rain = 0
KAD1 141946Z 29005KT 27/16 A3026 RMK A01 T02680162  RH  052%=      5-min Rain = 0
KAD1 141947Z 27005KT 27/16 A3026 RMK A01 T02700157  RH  050%=      5-min Rain = 0
KAD1 141948Z 29004KT 27/16 A3026 RMK A01 T02690157  RH  050%=      5-min Rain = 0
KAD1 141949Z 28005KT 27/15 A3026 RMK A01 T02670153  RH  049%=      5-min Rain = 0
KAD1 141950Z 25006KT 27/14 A3026 RMK A01 T02680141  RH  046%=      5-min Rain = 0
KAD1 141951Z 27006KT 27/15 A3026 RMK A01 T02700145  RH  046%=      5-min Rain = 0
KAD1 141952Z 29005KT 27/14 A3026 RMK A01 T02710138  RH  044%=      5-min Rain = 0
KAD1 141953Z 29006KT 27/14 A3026 RMK A01 T02690142  RH  046%=      5-min Rain = 0
KAD1 141954Z 28008KT 27/14 A3026 RMK A01 T02680141  RH  046%=      5-min Rain = 0
KAD1 141955Z 30008KT 27/14 A3026 RMK A01 T02690142  RH  046%=      5-min Rain = 0
KAD1 141956Z 30007KT 27/14 A3025 RMK A01 T02700144  RH  046%=      5-min Rain = 0
KAD1 141957Z 30006KT 27/15 A3025 RMK A01 T02710148  RH  047%=      5-min Rain = 0
KAD1 141958Z 29007KT 27/15 A3025 RMK A01 T02730148  RH  046%=      5-min Rain = 0
KAD1 141959Z 27008KT 28/15 A3025 RMK A01 T02750147  RH  045%=      5-min Rain = 0
KAD1 142000Z 29007KT 28/15 A3025 RMK A01 T02790146  RH  044%=      5-min Rain = 0
KAD1 142001Z 29009KT 28/14 A3025 RMK A01 T02800139  RH  042%=      5-min Rain = 0
KAD1 142002Z 29007KT 28/14 A3025 RMK A01 T02770137  RH  042%=      5-min Rain = 0
KAD1 142003Z 27006KT 27/14 A3025 RMK A01 T02740140  RH  044%=      5-min Rain = 0
KAD1 142004Z 28008KT 27/14 A3025 RMK A01 T02740143  RH  045%=      5-min Rain = 0
KAD1 142005Z 31007KT 28/15 A3025 RMK A01 T02750148  RH  046%=      5-min Rain = 0
KAD1 142006Z 29010KT 28/15 A3025 RMK A01 T02760150  RH  046%=      5-min Rain = 0
KAD1 142007Z 29006KT 28/15 A3025 RMK A01 T02780148  RH  045%=      5-min Rain = 0
KAD1 142008Z 29004G9KT 28/15 A3025 RMK A01 T02780149  RH  045%=      5-min Rain = 0
KAD1 142009Z 28010KT 28/16 A3025 RMK A01 T02780155  RH  047%=      5-min Rain = 0
KAD1 142010Z 28009KT 28/15 A3025 RMK A01 T02780154  RH  047%=      5-min Rain = 0
KAD1 142011Z 27008KT 28/16 A3025 RMK A01 T02790156  RH  047%=      5-min Rain = 0
KAD1 142012Z 26006KT 28/15 A3025 RMK A01 T02790153  RH  046%=      5-min Rain = 0
KAD1 142013Z 27004KT 28/15 A3025 RMK A01 T02780154  RH  047%=      5-min Rain = 0
KAD1 142014Z 30007KT 28/16 A3025 RMK A01 T02770156  RH  047%=      5-min Rain = 0
KAD1 142015Z 28011KT 28/15 A3025 RMK A01 T02770152  RH  046%=      5-min Rain = 0
KAD1 142016Z 28008KT 28/15 A3025 RMK A01 T02790148  RH  045%=      5-min Rain = 0
KAD1 142017Z 31008KT 28/14 A3025 RMK A01 T02790144  RH  044%=      5-min Rain = 0
KAD1 142018Z 28006KT 28/14 A3025 RMK A01 T02780144  RH  044%=      5-min Rain = 0
KAD1 142019Z 29009KT 28/15 A3024 RMK A01 T02780145  RH  044%=      5-min Rain = 0
KAD1 142020Z 29009KT 28/14 A3024 RMK A01 T02790144  RH  044%=      5-min Rain = 0
KAD1 142021Z 28010KT 28/15 A3024 RMK A01 T02790145  RH  044%=      5-min Rain = 0
KAD1 142022Z 27009KT 28/15 A3024 RMK A01 T02800146  RH  044%=      5-min Rain = 0
KAD1 142023Z 27008KT 28/14 A3024 RMK A01 T02800139  RH  042%=      5-min Rain = 0
KAD1 142024Z 27009KT 28/14 A3024 RMK A01 T02810142  RH  043%=      5-min Rain = 0
KAD1 142025Z 28006KT 28/14 A3024 RMK A01 T02820138  RH  041%=      5-min Rain = 0
KAD1 142026Z 28005KT 28/14 A3024 RMK A01 T02820136  RH  041%=      5-min Rain = 0
KAD1 142027Z 27011KT 28/14 A3024 RMK A01 T02800143  RH  043%=      5-min Rain = 0
KAD1 142028Z 27012KT 28/14 A3024 RMK A01 T02830140  RH  042%=      5-min Rain = 0
KAD1 142029Z 26010KT 29/14 A3024 RMK A01 T02850135  RH  040%=      5-min Rain = 0
KAD1 142030Z 26009KT 29/13 A3024 RMK A01 T02850133  RH  039%=      5-min Rain = 0
KAD1 142031Z 26009KT 29/13 A3024 RMK A01 T02860132  RH  039%=      5-min Rain = 0
KAD1 142032Z 28006KT 29/14 A3024 RMK A01 T02850136  RH  040%=      5-min Rain = 0
KAD1 142033Z 25009KT 29/14 A3024 RMK A01 T02850141  RH  041%=      5-min Rain = 0
KAD1 142034Z 26010KT 29/14 A3024 RMK A01 T02850140  RH  041%=      5-min Rain = 0
KAD1 142035Z 25007KT 28/14 A3024 RMK A01 T02840139  RH  041%=      5-min Rain = 0
KAD1 142036Z 27008KT 28/14 A3024 RMK A01 T02830136  RH  040%=      5-min Rain = 0
KAD1 142037Z 28010KT 28/14 A3024 RMK A01 T02830139  RH  041%=      5-min Rain = 0
KAD1 142038Z 27007KT 28/14 A3024 RMK A01 T02840138  RH  041%=      5-min Rain = 0
KAD1 142039Z 26006KT 28/14 A3024 RMK A01 T02830136  RH  041%=      5-min Rain = 0
KAD1 142040Z 26007KT 28/14 A3023 RMK A01 T02820135  RH  040%=      5-min Rain = 0
KAD1 142041Z 28008KT 28/14 A3023 RMK A01 T02830138  RH  041%=      5-min Rain = 0
KAD1 142042Z 28011KT 28/14 A3023 RMK A01 T02840137  RH  040%=      5-min Rain = 0
KAD1 142043Z 28009KT 28/14 A3023 RMK A01 T02840135  RH  040%=      5-min Rain = 0
KAD1 142044Z 28008KT 28/13 A3023 RMK A01 T02830134  RH  040%=      5-min Rain = 0
KAD1 142045Z 29006KT 28/13 A3023 RMK A01 T02820129  RH  039%=      5-min Rain = 0
KAD1 142046Z 27007KT 28/13 A3023 RMK A01 T02810128  RH  039%=      5-min Rain = 0
KAD1 142047Z 26010KT 28/14 A3023 RMK A01 T02810136  RH  041%=      5-min Rain = 0
KAD1 142048Z 27009KT 28/13 A3023 RMK A01 T02830132  RH  039%=      5-min Rain = 0
KAD1 142049Z 28007KT 28/13 A3023 RMK A01 T02840134  RH  040%=      5-min Rain = 0
KAD1 142050Z 28007KT 28/14 A3023 RMK A01 T02840135  RH  040%=      5-min Rain = 0
KAD1 142051Z 28007KT 28/14 A3023 RMK A01 T02840138  RH  041%=      5-min Rain = 0
KAD1 142052Z 27008KT 29/14 A3023 RMK A01 T02870138  RH  040%=      5-min Rain = 0
KAD1 142053Z 27008KT 29/14 A3023 RMK A01 T02880136  RH  039%=      5-min Rain = 0
KAD1 142054Z 27009KT 29/13 A3023 RMK A01 T02900134  RH  038%=      5-min Rain = 0
KAD1 142055Z 27009KT 29/13 A3023 RMK A01 T02900130  RH  037%=      5-min Rain = 0
KAD1 142056Z 27006KT 29/13 A3023 RMK A01 T02890128  RH  037%=      5-min Rain = 0
KAD1 142057Z 28006KT 29/13 A3023 RMK A01 T02870127  RH  037%=      5-min Rain = 0
KAD1 142058Z 26007KT 29/13 A3023 RMK A01 T02860130  RH  038%=      5-min Rain = 0
KAD1 142059Z 25006KT 29/13 A3023 RMK A01 T02860132  RH  039%=      5-min Rain = 0
KAD1 142100Z 25006KT 29/14 A3023 RMK A01 T02870135  RH  039%=      5-min Rain = 0
KAD1 142101Z 24006KT 29/13 A3023 RMK A01 T02880131  RH  038%=      5-min Rain = 0
KAD1 142102Z 25009KT 29/13 A3022 RMK A01 T02880133  RH  039%=      5-min Rain = 0
KAD1 142103Z 26010KT 29/13 A3023 RMK A01 T02890134  RH  039%=      5-min Rain = 0
KAD1 142104Z 26010KT 29/13 A3023 RMK A01 T02900132  RH  038%=      5-min Rain = 0
KAD1 142105Z 26009KT 29/13 A3022 RMK A01 T02900133  RH  038%=      5-min Rain = 0
KAD1 142106Z 27007KT 29/13 A3022 RMK A01 T02890132  RH  038%=      5-min Rain = 0
KAD1 142107Z 26006KT 29/13 A3022 RMK A01 T02880133  RH  038%=      5-min Rain = 0
KAD1 142108Z 25007KT 29/12 A3022 RMK A01 T02890124  RH  036%=      5-min Rain = 0
KAD1 142109Z 26010KT 29/13 A3022 RMK A01 T02890127  RH  037%=      5-min Rain = 0
KAD1 142110Z 25009KT 29/12 A3022 RMK A01 T02900124  RH  036%=      5-min Rain = 0
KAD1 142111Z 25007KT 29/13 A3022 RMK A01 T02900127  RH  037%=      5-min Rain = 0
KAD1 142112Z 25007KT 29/12 A3022 RMK A01 T02890121  RH  035%=      5-min Rain = 0
KAD1 142113Z 26007KT 29/12 A3022 RMK A01 T02880123  RH  036%=      5-min Rain = 0
KAD1 142114Z 28009KT 29/12 A3022 RMK A01 T02890123  RH  036%=      5-min Rain = 0
KAD1 142115Z 26006KT 29/12 A3022 RMK A01 T02880121  RH  036%=      5-min Rain = 0
KAD1 142116Z 26009KT 29/12 A3022 RMK A01 T02880122  RH  036%=      5-min Rain = 0
KAD1 142117Z 27008KT 29/12 A3022 RMK A01 T02880120  RH  035%=      5-min Rain = 0
KAD1 142118Z 27008KT 29/12 A3022 RMK A01 T02880117  RH  035%=      5-min Rain = 0
KAD1 142119Z 27005KT 29/11 A3022 RMK A01 T02870113  RH  034%=      5-min Rain = 0
KAD1 142120Z 30006KT 29/11 A3022 RMK A01 T02860114  RH  034%=      5-min Rain = 0
KAD1 142121Z 29007KT 29/12 A3022 RMK A01 T02860119  RH  035%=      5-min Rain = 0
KAD1 142122Z 27005KT 29/12 A3022 RMK A01 T02860117  RH  035%=      5-min Rain = 0
KAD1 142123Z 27006KT 29/12 A3022 RMK A01 T02870119  RH  035%=      5-min Rain = 0
KAD1 142124Z 26010KT 29/11 A3022 RMK A01 T02880113  RH  034%=      5-min Rain = 0
KAD1 142125Z 27009KT 29/11 A3022 RMK A01 T02890113  RH  034%=      5-min Rain = 0
KAD1 142126Z 27008KT 29/12 A3022 RMK A01 T02900119  RH  035%=      5-min Rain = 0
KAD1 142127Z 26007KT 29/12 A3022 RMK A01 T02910120  RH  035%=      5-min Rain = 0
KAD1 142128Z 25008KT 29/12 A3022 RMK A01 T02920123  RH  035%=      5-min Rain = 0
KAD1 142129Z 25007KT 29/12 A3022 RMK A01 T02920122  RH  035%=      5-min Rain = 0
KAD1 142130Z 26007KT 29/12 A3021 RMK A01 T02900124  RH  036%=      5-min Rain = 0
KAD1 142131Z 24005KT 29/12 A3021 RMK A01 T02890123  RH  036%=      5-min Rain = 0
KAD1 142132Z 27006KT 29/12 A3021 RMK A01 T02890120  RH  035%=      5-min Rain = 0
KAD1 142133Z 28007KT 29/11 A3021 RMK A01 T02900109  RH  033%=      5-min Rain = 0
KAD1 142134Z 29008KT 29/12 A3021 RMK A01 T02910117  RH  034%=      5-min Rain = 0
KAD1 142135Z 28008KT 29/12 A3021 RMK A01 T02920118  RH  034%=      5-min Rain = 0
KAD1 142136Z 27006KT 29/12 A3021 RMK A01 T02910117  RH  034%=      5-min Rain = 0
KAD1 142137Z 28005KT 29/12 A3021 RMK A01 T02900123  RH  036%=      5-min Rain = 0
KAD1 142138Z 27005KT 29/13 A3021 RMK A01 T02910126  RH  036%=      5-min Rain = 0
KAD1 142139Z 25006KT 29/13 A3021 RMK A01 T02930127  RH  036%=      5-min Rain = 0
KAD1 142140Z 24006KT 30/13 A3021 RMK A01 T02950128  RH  036%=      5-min Rain = 0
KAD1 142141Z 25003KT 29/13 A3021 RMK A01 T02940125  RH  035%=      5-min Rain = 0
KAD1 142142Z 27003KT 29/13 A3021 RMK A01 T02940129  RH  036%=      5-min Rain = 0
KAD1 142143Z 25005KT 30/14 A3021 RMK A01 T02950136  RH  038%=      5-min Rain = 0
KAD1 142144Z 27006KT 30/13 A3021 RMK A01 T02960130  RH  036%=      5-min Rain = 0
KAD1 142145Z 25007KT 30/13 A3021 RMK A01 T02960133  RH  037%=      5-min Rain = 0
KAD1 142146Z 24007KT 29/13 A3021 RMK A01 T02940130  RH  036%=      5-min Rain = 0
KAD1 142147Z 24003KT 29/13 A3021 RMK A01 T02930128  RH  036%=      5-min Rain = 0
KAD1 142148Z 29003KT 29/13 A3021 RMK A01 T02930131  RH  037%=      5-min Rain = 0
KAD1 142149Z 29007KT 29/13 A3021 RMK A01 T02940131  RH  037%=      5-min Rain = 0
KAD1 142150Z 28007KT 29/13 A3021 RMK A01 T02940132  RH  037%=      5-min Rain = 0
KAD1 142151Z 26005KT 30/13 A3021 RMK A01 T02950128  RH  036%=      5-min Rain = 0
KAD1 142152Z 25004KT 30/13 A3021 RMK A01 T02960132  RH  037%=      5-min Rain = 0
KAD1 142153Z 26007KT 30/13 A302 RMK A01 T02960129  RH  036%=      5-min Rain = 0
KAD1 142154Z 25007KT 30/13 A302 RMK A01 T02970130  RH  036%=      5-min Rain = 0
KAD1 142155Z 23006KT 30/13 A302 RMK A01 T02960130  RH  036%=      5-min Rain = 0
KAD1 142156Z 23008KT 30/13 A302 RMK A01 T02950129  RH  036%=      5-min Rain = 0
KAD1 142157Z 23006KT 30/13 A302 RMK A01 T02950126  RH  035%=      5-min Rain = 0
KAD1 142158Z 23005KT 29/13 A302 RMK A01 T02930130  RH  037%=      5-min Rain = 0
KAD1 142159Z 23003KT 29/13 A302 RMK A01 T02930131  RH  037%=      5-min Rain = 0
KAD1 142200Z 25004KT 29/13 A302 RMK A01 T02940132  RH  037%=      5-min Rain = 0
KAD1 142201Z 25008KT 29/13 A302 RMK A01 T02940133  RH  037%=      5-min Rain = 0
KAD1 142202Z 24006KT 30/14 A302 RMK A01 T02950135  RH  038%=      5-min Rain = 0
KAD1 142203Z 26005KT 30/13 A302 RMK A01 T02960134  RH  037%=      5-min Rain = 0
KAD1 142204Z 27003KT 30/13 A302 RMK A01 T02950133  RH  037%=      5-min Rain = 0
KAD1 142205Z 24003KT 30/13 A302 RMK A01 T02950134  RH  037%=      5-min Rain = 0
KAD1 142206Z 24003KT 30/14 A302 RMK A01 T02950135  RH  038%=      5-min Rain = 0
KAD1 142207Z 28005KT 30/14 A302 RMK A01 T02950141  RH  039%=      5-min Rain = 0
KAD1 142208Z 25005KT 30/14 A3019 RMK A01 T02960136  RH  037%=      5-min Rain = 0
KAD1 142209Z 24004KT 30/14 A3019 RMK A01 T02950142  RH  039%=      5-min Rain = 0
KAD1 142210Z 29002KT 30/14 A3019 RMK A01 T02950141  RH  039%=      5-min Rain = 0
KAD1 142211Z 26002KT 30/14 A3019 RMK A01 T02950142  RH  039%=      5-min Rain = 0
KAD1 142212Z 26005KT 30/14 A3019 RMK A01 T02970142  RH  039%=      5-min Rain = 0
KAD1 142213Z 28002KT 30/14 A3019 RMK A01 T02970140  RH  038%=      5-min Rain = 0
KAD1 142214Z 27003KT 30/14 A3019 RMK A01 T02970139  RH  038%=      5-min Rain = 0
KAD1 142215Z 26003KT 30/14 A3019 RMK A01 T02970137  RH  038%=      5-min Rain = 0
KAD1 142216Z 25005KT 30/14 A3019 RMK A01 T02970138  RH  038%=      5-min Rain = 0
KAD1 142217Z 24003KT 30/14 A3019 RMK A01 T02980138  RH  038%=      5-min Rain = 0
KAD1 142218Z 26002KT 30/14 A3019 RMK A01 T02970137  RH  038%=      5-min Rain = 0
KAD1 142219Z 29002KT 30/13 A3019 RMK A01 T02970134  RH  037%=      5-min Rain = 0
KAD1 142220Z 18001KT 30/13 A3019 RMK A01 T02970134  RH  037%=      5-min Rain = 0
KAD1 142221Z 27004KT 30/14 A3019 RMK A01 T02990139  RH  038%=      5-min Rain = 0
KAD1 142222Z 29007KT 30/14 A3019 RMK A01 T03000140  RH  038%=      5-min Rain = 0
KAD1 142223Z 26008KT 30/14 A3019 RMK A01 T03010136  RH  037%=      5-min Rain = 0
KAD1 142224Z 27008KT 30/13 A3019 RMK A01 T03000134  RH  036%=      5-min Rain = 0
KAD1 142225Z 27006KT 30/13 A3019 RMK A01 T02980132  RH  036%=      5-min Rain = 0
KAD1 142226Z 28006KT 30/13 A3019 RMK A01 T02970134  RH  037%=      5-min Rain = 0
KAD1 142227Z 30003KT 30/13 A3019 RMK A01 T02970131  RH  036%=      5-min Rain = 0
KAD1 142228Z 27005KT 30/14 A3019 RMK A01 T02970137  RH  038%=      5-min Rain = 0
KAD1 142229Z 28004KT 30/13 A3019 RMK A01 T02970134  RH  037%=      5-min Rain = 0
KAD1 142230Z 27006KT 30/13 A3019 RMK A01 T02970131  RH  036%=      5-min Rain = 0
KAD1 142231Z 26005KT 30/13 A3019 RMK A01 T02960131  RH  036%=      5-min Rain = 0
KAD1 142232Z 23006KT 30/13 A3019 RMK A01 T02960130  RH  036%=      5-min Rain = 0
KAD1 142233Z 23004KT 30/13 A3019 RMK A01 T02970128  RH  035%=      5-min Rain = 0
KAD1 142234Z 21003KT 30/13 A3019 RMK A01 T02970128  RH  035%=      5-min Rain = 0
KAD1 142235Z 19003KT 30/13 A3019 RMK A01 T02970132  RH  036%=      5-min Rain = 0
KAD1 142236Z 18005KT 30/13 A3018 RMK A01 T02970127  RH  035%=      5-min Rain = 0
KAD1 142237Z 23004KT 30/13 A3018 RMK A01 T02960128  RH  036%=      5-min Rain = 0
KAD1 142238Z 25004KT 30/13 A3018 RMK A01 T02950134  RH  037%=      5-min Rain = 0
KAD1 142239Z 25004KT 30/14 A3018 RMK A01 T02960136  RH  038%=      5-min Rain = 0
KAD1 142240Z 23007KT 30/14 A3018 RMK A01 T02970136  RH  037%=      5-min Rain = 0
KAD1 142241Z 24008KT 30/14 A3018 RMK A01 T02990137  RH  037%=      5-min Rain = 0
KAD1 142242Z 22008KT 30/14 A3018 RMK A01 T03000138  RH  037%=      5-min Rain = 0
KAD1 142243Z 21006KT 30/14 A3019 RMK A01 T03000136  RH  037%=      5-min Rain = 0
KAD1 142244Z 22005KT 30/13 A3019 RMK A01 T02980132  RH  036%=      5-min Rain = 0
KAD1 142245Z 21006KT 30/13 A3019 RMK A01 T02970134  RH  037%=      5-min Rain = 0
KAD1 142246Z 22009KT 30/14 A3019 RMK A01 T02970139  RH  038%=      5-min Rain = 0
KAD1 142247Z 22007KT 30/14 A3019 RMK A01 T02990136  RH  037%=      5-min Rain = 0
KAD1 142248Z 21006KT 30/14 A3019 RMK A01 T02990135  RH  036%=      5-min Rain = 0
KAD1 142249Z 20006KT 30/14 A3019 RMK A01 T02990135  RH  037%=      5-min Rain = 0
KAD1 142250Z 20006KT 30/14 A3018 RMK A01 T02980135  RH  037%=      5-min Rain = 0
KAD1 142251Z 20007KT 30/14 A3018 RMK A01 T02970139  RH  038%=      5-min Rain = 0
KAD1 142252Z 25005KT 30/14 A3018 RMK A01 T02970137  RH  038%=      5-min Rain = 0
KAD1 142253Z 21004KT 30/14 A3018 RMK A01 T02980135  RH  037%=      5-min Rain = 0
KAD1 142254Z 16003KT 30/14 A3018 RMK A01 T02980136  RH  037%=      5-min Rain = 0
KAD1 142255Z 14002KT 30/14 A3018 RMK A01 T02980136  RH  037%=      5-min Rain = 0
KAD1 142256Z 17003KT 30/14 A3018 RMK A01 T02980139  RH  038%=      5-min Rain = 0
KAD1 142257Z 20004KT 30/14 A3018 RMK A01 T02980140  RH  038%=      5-min Rain = 0
KAD1 142258Z 20003KT 30/14 A3018 RMK A01 T02980137  RH  037%=      5-min Rain = 0
KAD1 142259Z 22007KT 30/14 A3018 RMK A01 T02990138  RH  037%=      5-min Rain = 0
KAD1 142300Z 24007KT 30/14 A3018 RMK A01 T03000138  RH  037%=      5-min Rain = 0
KAD1 142301Z 24005KT 30/14 A3018 RMK A01 T03010138  RH  037%=      5-min Rain = 0
KAD1 142302Z 20005KT 30/13 A3018 RMK A01 T03010134  RH  036%=      5-min Rain = 0
KAD1 142303Z 22003KT 30/14 A3018 RMK A01 T03000135  RH  036%=      5-min Rain = 0
KAD1 142304Z 24003KT 30/14 A3018 RMK A01 T02990135  RH  037%=      5-min Rain = 0
KAD1 142305Z 23004KT 30/14 A3018 RMK A01 T02990138  RH  037%=      5-min Rain = 0
KAD1 142306Z 26007KT 30/14 A3018 RMK A01 T02990136  RH  037%=      5-min Rain = 0
KAD1 142307Z 26007KT 30/14 A3018 RMK A01 T02990138  RH  037%=      5-min Rain = 0
KAD1 142308Z 26005KT 30/14 A3018 RMK A01 T02990140  RH  038%=      5-min Rain = 0
KAD1 142309Z 24004KT 30/14 A3018 RMK A01 T03000138  RH  037%=      5-min Rain = 0
KAD1 142310Z 25005KT 30/14 A3018 RMK A01 T02990139  RH  037%=      5-min Rain = 0
KAD1 142311Z 26005KT 30/14 A3018 RMK A01 T02990137  RH  037%=      5-min Rain = 0
KAD1 142312Z 28005KT 30/14 A3018 RMK A01 T02980137  RH  037%=      5-min Rain = 0
KAD1 142313Z 27002KT 30/13 A3018 RMK A01 T02970134  RH  037%=      5-min Rain = 0
KAD1 142314Z 27001KT 30/14 A3017 RMK A01 T02970138  RH  038%=      5-min Rain = 0
KAD1 142315Z 26003KT 30/14 A3017 RMK A01 T02990143  RH  039%=      5-min Rain = 0
KAD1 142316Z 25003KT 30/14 A3017 RMK A01 T03010141  RH  038%=      5-min Rain = 0
KAD1 142317Z 17007G12KT 30/14 A3017 RMK A01 T03030144  RH  038%=      5-min Rain = 0
KAD1 142318Z 18005KT 30/15 A3017 RMK A01 T03020146  RH  039%=      5-min Rain = 0
KAD1 142319Z 18004KT 30/14 A3018 RMK A01 T03000139  RH  037%=      5-min Rain = 0
KAD1 142320Z 18003KT 30/15 A3018 RMK A01 T02990146  RH  039%=      5-min Rain = 0
KAD1 142321Z 18003KT 30/14 A3018 RMK A01 T02980138  RH  038%=      5-min Rain = 0
KAD1 142322Z 22003KT 30/14 A3018 RMK A01 T02980140  RH  038%=      5-min Rain = 0
KAD1 142323Z 22001KT 30/14 A3018 RMK A01 T02980135  RH  037%=      5-min Rain = 0
KAD1 142324Z 24001KT 30/14 A3018 RMK A01 T02980136  RH  037%=      5-min Rain = 0
KAD1 142325Z 26001KT 30/14 A3018 RMK A01 T02990138  RH  037%=      5-min Rain = 0
KAD1 142326Z 22002KT 30/14 A3018 RMK A01 T03000144  RH  039%=      5-min Rain = 0
KAD1 142327Z 23003KT 30/14 A3018 RMK A01 T03020140  RH  037%=      5-min Rain = 0
KAD1 142328Z 24002KT 30/14 A3017 RMK A01 T03020142  RH  038%=      5-min Rain = 0
KAD1 142329Z 25003KT 30/14 A3017 RMK A01 T03030138  RH  037%=      5-min Rain = 0
KAD1 142330Z 23002KT 30/14 A3017 RMK A01 T03030139  RH  037%=      5-min Rain = 0
KAD1 142331Z 23003KT 30/14 A3017 RMK A01 T03030143  RH  038%=      5-min Rain = 0
KAD1 142332Z 22004KT 30/14 A3017 RMK A01 T03030139  RH  037%=      5-min Rain = 0
KAD1 142333Z 21003KT 30/14 A3018 RMK A01 T03020140  RH  037%=      5-min Rain = 0
KAD1 142334Z 19003KT 30/14 A3018 RMK A01 T03010140  RH  037%=      5-min Rain = 0
KAD1 142335Z 17003KT 30/14 A3018 RMK A01 T03010140  RH  037%=      5-min Rain = 0
KAD1 142336Z 15004KT 30/14 A3018 RMK A01 T03000138  RH  037%=      5-min Rain = 0
KAD1 142337Z 16003KT 30/14 A3018 RMK A01 T02990136  RH  037%=      5-min Rain = 0
KAD1 142338Z 19002KT 30/14 A3017 RMK A01 T02980138  RH  038%=      5-min Rain = 0
KAD1 142339Z 18002KT 30/14 A3017 RMK A01 T02970139  RH  038%=      5-min Rain = 0
KAD1 142340Z 18002KT 30/14 A3017 RMK A01 T02970138  RH  038%=      5-min Rain = 0
KAD1 142341Z 22002KT 30/14 A3017 RMK A01 T02980141  RH  038%=      5-min Rain = 0
KAD1 142342Z 26002KT 30/14 A3017 RMK A01 T02990142  RH  038%=      5-min Rain = 0
KAD1 142343Z 24004KT 30/14 A3017 RMK A01 T03010142  RH  038%=      5-min Rain = 0
KAD1 142344Z 23003KT 30/14 A3017 RMK A01 T03020140  RH  037%=      5-min Rain = 0
KAD1 142345Z 23004KT 30/14 A3017 RMK A01 T03010141  RH  038%=      5-min Rain = 0
KAD1 142346Z 22005KT 30/14 A3017 RMK A01 T03010144  RH  038%=      5-min Rain = 0
KAD1 142347Z 21005KT 30/14 A3017 RMK A01 T03010141  RH  038%=      5-min Rain = 0
KAD1 142348Z 21005KT 30/14 A3017 RMK A01 T03010141  RH  038%=      5-min Rain = 0
KAD1 142349Z 22004KT 30/14 A3017 RMK A01 T03000140  RH  038%=      5-min Rain = 0
KAD1 142350Z 21004KT 30/14 A3017 RMK A01 T02990138  RH  037%=      5-min Rain = 0
KAD1 142351Z 20003KT 30/14 A3017 RMK A01 T02990138  RH  037%=      5-min Rain = 0
KAD1 142352Z 21005KT 30/14 A3017 RMK A01 T02990140  RH  038%=      5-min Rain = 0
KAD1 142353Z 22003KT 30/14 A3017 RMK A01 T02990136  RH  037%=      5-min Rain = 0
KAD1 142354Z 21002KT 30/14 A3017 RMK A01 T02980135  RH  037%=      5-min Rain = 0
KAD1 142355Z 20002KT 30/14 A3017 RMK A01 T02980139  RH  038%=      5-min Rain = 0
KAD1 142356Z 20003KT 30/14 A3017 RMK A01 T03000139  RH  038%=      5-min Rain = 0
KAD1 142357Z 18002KT 30/14 A3017 RMK A01 T03000138  RH  037%=      5-min Rain = 0
KAD1 142358Z 17003KT 30/14 A3017 RMK A01 T03000137  RH  037%=      5-min Rain = 0
KAD1 142359Z 17002KT 30/14 A3017 RMK A01 T02990138  RH  037%=      5-min Rain = 0
KAD1 150000Z 24005KT 30/14 A3017 RMK A01 T02990141  RH  038%=      5-min Rain = 0
KAD1 150001Z 25005KT 30/14 A3017 RMK A01 T02990140  RH  038%=      5-min Rain = 0
KAD1 150002Z 24005KT 30/14 A3017 RMK A01 T02990139  RH  038%=      5-min Rain = 0
KAD1 150003Z 26002KT 30/14 A3017 RMK A01 T02980137  RH  038%=      5-min Rain = 0
KAD1 150004Z 30001KT 30/14 A3017 RMK A01 T02970136  RH  037%=      5-min Rain = 0
KAD1 150005Z 31001KT 30/14 A3017 RMK A01 T02960136  RH  037%=      5-min Rain = 0
KAD1 150006Z 28001KT 30/14 A3017 RMK A01 T02960139  RH  038%=      5-min Rain = 0
KAD1 150007Z 25003KT 30/14 A3017 RMK A01 T02970139  RH  038%=      5-min Rain = 0
KAD1 150008Z 24004KT 30/14 A3017 RMK A01 T02960144  RH  039%=      5-min Rain = 0
KAD1 150009Z 24004KT 30/14 A3017 RMK A01 T02960141  RH  039%=      5-min Rain = 0
KAD1 150010Z 23003KT 30/14 A3017 RMK A01 T02950141  RH  039%=      5-min Rain = 0
KAD1 150011Z 23003KT 29/14 A3017 RMK A01 T02940142  RH  039%=      5-min Rain = 0
KAD1 150012Z 23003KT 29/15 A3017 RMK A01 T02940146  RH  041%=      5-min Rain = 0
KAD1 150013Z 21003KT 29/15 A3017 RMK A01 T02930146  RH  041%=      5-min Rain = 0
KAD1 150014Z 18002KT 29/15 A3017 RMK A01 T02930145  RH  040%=      5-min Rain = 0
KAD1 150015Z 16002KT 29/15 A3018 RMK A01 T02920147  RH  041%=      5-min Rain = 0
KAD1 150016Z 16001KT 29/14 A3018 RMK A01 T02910142  RH  040%=      5-min Rain = 0
KAD1 150017Z 15000KT 29/14 A3018 RMK A01 T02900143  RH  040%=      5-min Rain = 0
KAD1 150018Z 20002KT 29/15 A3018 RMK A01 T02910146  RH  041%=      5-min Rain = 0
KAD1 150019Z 24003KT 29/14 A3018 RMK A01 T02900142  RH  041%=      5-min Rain = 0
KAD1 150020Z 24003KT 29/14 A3018 RMK A01 T02900138  RH  039%=      5-min Rain = 0
KAD1 150021Z 24002KT 29/14 A3018 RMK A01 T02900144  RH  041%=      5-min Rain = 0
KAD1 150022Z 24002KT 29/14 A3018 RMK A01 T02900144  RH  041%=      5-min Rain = 0
KAD1 150023Z 24003KT 29/15 A3018 RMK A01 T02900148  RH  042%=      5-min Rain = 0
KAD1 150024Z 24003KT 29/15 A3017 RMK A01 T02890149  RH  042%=      5-min Rain = 0
KAD1 150025Z 24003KT 29/15 A3017 RMK A01 T02890151  RH  043%=      5-min Rain = 0
KAD1 150026Z 23003KT 29/15 A3017 RMK A01 T02880151  RH  043%=      5-min Rain = 0
KAD1 150027Z 24003KT 29/15 A3017 RMK A01 T02870153  RH  044%=      5-min Rain = 0
KAD1 150028Z 24003KT 29/16 A3017 RMK A01 T02870155  RH  045%=      5-min Rain = 0
KAD1 150029Z 23004KT 29/16 A3017 RMK A01 T02860155  RH  045%=      5-min Rain = 0
KAD1 150030Z 24003KT 29/15 A3017 RMK A01 T02850152  RH  044%=      5-min Rain = 0
KAD1 150031Z 25004KT 28/15 A3017 RMK A01 T02840153  RH  045%=      5-min Rain = 0
KAD1 150032Z 26004KT 28/15 A3017 RMK A01 T02840153  RH  045%=      5-min Rain = 0
KAD1 150033Z 26004KT 28/15 A3018 RMK A01 T02820153  RH  045%=      5-min Rain = 0
KAD1 150034Z 26005KT 28/15 A3018 RMK A01 T02820151  RH  045%=      5-min Rain = 0
KAD1 150035Z 26004KT 28/15 A3018 RMK A01 T02820152  RH  045%=      5-min Rain = 0
KAD1 150036Z 26005KT 28/15 A3018 RMK A01 T02810153  RH  046%=      5-min Rain = 0
KAD1 150037Z 26005KT 28/15 A3018 RMK A01 T02810151  RH  045%=      5-min Rain = 0
KAD1 150038Z 26005KT 28/15 A3018 RMK A01 T02810152  RH  045%=      5-min Rain = 0
KAD1 150039Z 26005KT 28/15 A3018 RMK A01 T02810153  RH  046%=      5-min Rain = 0
KAD1 150040Z 26005KT 28/15 A3018 RMK A01 T02800151  RH  045%=      5-min Rain = 0
KAD1 150041Z 26005KT 28/15 A3018 RMK A01 T02800149  RH  045%=      5-min Rain = 0
KAD1 150042Z 26005KT 28/15 A3018 RMK A01 T02800148  RH  044%=      5-min Rain = 0
KAD1 150043Z 25005KT 28/15 A3018 RMK A01 T02800150  RH  045%=      5-min Rain = 0
KAD1 150044Z 26005KT 28/15 A3018 RMK A01 T02800151  RH  045%=      5-min Rain = 0
KAD1 150045Z 26005KT 28/15 A3018 RMK A01 T02800154  RH  046%=      5-min Rain = 0
KAD1 150046Z 26005KT 28/16 A3018 RMK A01 T02790155  RH  047%=      5-min Rain = 0
KAD1 150047Z 27005KT 28/16 A3018 RMK A01 T02790156  RH  047%=      5-min Rain = 0
KAD1 150048Z 27005KT 28/16 A3018 RMK A01 T02780155  RH  047%=      5-min Rain = 0
KAD1 150049Z 27005KT 28/16 A3018 RMK A01 T02780155  RH  047%=      5-min Rain = 0
KAD1 150050Z 27004KT 28/15 A3018 RMK A01 T02780152  RH  046%=      5-min Rain = 0
KAD1 150051Z 28004KT 28/15 A3018 RMK A01 T02780151  RH  046%=      5-min Rain = 0
KAD1 150052Z 28005KT 28/15 A3018 RMK A01 T02790152  RH  046%=      5-min Rain = 0
KAD1 150053Z 28004KT 28/15 A3019 RMK A01 T02790153  RH  046%=      5-min Rain = 0
KAD1 150054Z 28004KT 28/16 A3019 RMK A01 T02790155  RH  047%=      5-min Rain = 0
KAD1 150055Z 28004KT 28/16 A3019 RMK A01 T02800155  RH  047%=      5-min Rain = 0
KAD1 150056Z 29003KT 28/16 A3019 RMK A01 T02800156  RH  047%=      5-min Rain = 0
KAD1 150057Z 30003KT 28/16 A3019 RMK A01 T02790155  RH  047%=      5-min Rain = 0
KAD1 150058Z 29003KT 28/16 A3019 RMK A01 T02790158  RH  048%=      5-min Rain = 0
KAD1 150059Z 29003KT 28/16 A3019 RMK A01 T02780157  RH  048%=      5-min Rain = 0
KAD1 150100Z 30003KT 28/16 A3019 RMK A01 T02780157  RH  048%=      5-min Rain = 0
KAD1 150101Z 30003KT 28/16 A3019 RMK A01 T02780158  RH  048%=      5-min Rain = 0
KAD1 150102Z 30003KT 28/16 A3019 RMK A01 T02780157  RH  048%=      5-min Rain = 0
KAD1 150103Z 31003KT 28/16 A3019 RMK A01 T02780156  RH  047%=      5-min Rain = 0
KAD1 150104Z 31003KT 28/16 A3019 RMK A01 T02780157  RH  048%=      5-min Rain = 0
KAD1 150105Z 30003KT 28/16 A3019 RMK A01 T02780159  RH  048%=      5-min Rain = 0
KAD1 150106Z 29003KT 28/16 A3019 RMK A01 T02770158  RH  048%=      5-min Rain = 0
KAD1 150107Z 30004KT 28/16 A3019 RMK A01 T02770158  RH  048%=      5-min Rain = 0
KAD1 150108Z 30004KT 28/16 A3019 RMK A01 T02770158  RH  048%=      5-min Rain = 0
KAD1 150109Z 29003KT 28/16 A3019 RMK A01 T02760157  RH  048%=      5-min Rain = 0
KAD1 150110Z 29003KT 28/16 A3019 RMK A01 T02760157  RH  048%=      5-min Rain = 0
KAD1 150111Z 28003KT 28/16 A3019 RMK A01 T02760157  RH  048%=      5-min Rain = 0
KAD1 150112Z 28004KT 28/16 A3019 RMK A01 T02760157  RH  048%=      5-min Rain = 0
KAD1 150113Z 28004KT 28/16 A3019 RMK A01 T02760157  RH  048%=      5-min Rain = 0
KAD1 150114Z 28004KT 28/16 A3019 RMK A01 T02760158  RH  049%=      5-min Rain = 0
KAD1 150115Z 28003KT 28/16 A3019 RMK A01 T02750159  RH  049%=      5-min Rain = 0
KAD1 150116Z 28003KT 28/16 A3019 RMK A01 T02750160  RH  050%=      5-min Rain = 0
KAD1 150117Z 28003KT 28/16 A3019 RMK A01 T02750161  RH  050%=      5-min Rain = 0
KAD1 150118Z 28003KT 27/16 A3018 RMK A01 T02740159  RH  049%=      5-min Rain = 0
KAD1 150119Z 29003KT 27/16 A3018 RMK A01 T02740159  RH  050%=      5-min Rain = 0
KAD1 150120Z 29003KT 27/16 A3018 RMK A01 T02740160  RH  050%=      5-min Rain = 0
KAD1 150121Z 29003KT 27/16 A3019 RMK A01 T02730159  RH  050%=      5-min Rain = 0
KAD1 150122Z 29003KT 27/16 A3019 RMK A01 T02730159  RH  050%=      5-min Rain = 0
KAD1 150123Z 29003KT 27/16 A3019 RMK A01 T02730160  RH  050%=      5-min Rain = 0
KAD1 150124Z 29003KT 27/16 A3019 RMK A01 T02730159  RH  050%=      5-min Rain = 0
KAD1 150125Z 29003KT 27/16 A3019 RMK A01 T02730159  RH  050%=      5-min Rain = 0
KAD1 150126Z 30003KT 27/16 A3019 RMK A01 T02720159  RH  050%=      5-min Rain = 0
KAD1 150127Z 30002KT 27/16 A3019 RMK A01 T02720159  RH  050%=      5-min Rain = 0
KAD1 150128Z 30002KT 27/16 A3019 RMK A01 T02720157  RH  049%=      5-min Rain = 0
KAD1 150129Z 30002KT 27/16 A3019 RMK A01 T02720158  RH  050%=      5-min Rain = 0
KAD1 150130Z 30001KT 27/16 A3019 RMK A01 T02730160  RH  050%=      5-min Rain = 0
KAD1 150131Z 30001KT 27/16 A3019 RMK A01 T02720159  RH  050%=      5-min Rain = 0
KAD1 150132Z 30000KT 27/16 A3019 RMK A01 T02720163  RH  051%=      5-min Rain = 0
KAD1 150133Z 00000KT 27/17 A3019 RMK A01 T02710167  RH  053%=      5-min Rain = 0
KAD1 150134Z 00000KT 27/18 A3019 RMK A01 T02710175  RH  056%=      5-min Rain = 0
KAD1 150135Z 00000KT 27/18 A3019 RMK A01 T02690182  RH  059%=      5-min Rain = 0
KAD1 150136Z 14000KT 27/19 A3019 RMK A01 T02680185  RH  060%=      5-min Rain = 0
KAD1 150137Z 14002KT 27/19 A3019 RMK A01 T02660187  RH  062%=      5-min Rain = 0
KAD1 150138Z 14003KT 26/19 A3019 RMK A01 T02640190  RH  064%=      5-min Rain = 0
KAD1 150139Z 14003KT 26/19 A3019 RMK A01 T02620187  RH  063%=      5-min Rain = 0
KAD1 150140Z 13004KT 26/19 A3019 RMK A01 T02610185  RH  063%=      5-min Rain = 0
KAD1 150141Z 13004KT 26/18 A3019 RMK A01 T02610183  RH  062%=      5-min Rain = 0
KAD1 150142Z 13004KT 26/18 A3019 RMK A01 T02610180  RH  061%=      5-min Rain = 0
KAD1 150143Z 13004KT 26/18 A3019 RMK A01 T02630181  RH  061%=      5-min Rain = 0
KAD1 150144Z 13004KT 26/18 A3019 RMK A01 T02630181  RH  060%=      5-min Rain = 0
KAD1 150145Z 13004KT 26/18 A3019 RMK A01 T02640181  RH  061%=      5-min Rain = 0
KAD1 150146Z 13004KT 26/18 A3019 RMK A01 T02630180  RH  060%=      5-min Rain = 0
KAD1 150147Z 13004KT 26/18 A3019 RMK A01 T02640180  RH  060%=      5-min Rain = 0
KAD1 150148Z 13004KT 26/18 A3019 RMK A01 T02630179  RH  060%=      5-min Rain = 0
KAD1 150149Z 13005KT 26/18 A3019 RMK A01 T02630179  RH  060%=      5-min Rain = 0
KAD1 150150Z 13005KT 26/18 A3019 RMK A01 T02630179  RH  060%=      5-min Rain = 0
KAD1 150151Z 14005KT 26/18 A3019 RMK A01 T02640180  RH  060%=      5-min Rain = 0
KAD1 150152Z 14006KT 26/18 A3019 RMK A01 T02630180  RH  060%=      5-min Rain = 0
KAD1 150153Z 14006KT 26/18 A3019 RMK A01 T02620179  RH  060%=      5-min Rain = 0
KAD1 150154Z 14006KT 26/18 A3019 RMK A01 T02620178  RH  060%=      5-min Rain = 0
KAD1 150155Z 14006KT 26/18 A3019 RMK A01 T02610179  RH  060%=      5-min Rain = 0
KAD1 150156Z 14006KT 26/18 A3019 RMK A01 T02610176  RH  060%=      5-min Rain = 0
KAD1 150157Z 14006KT 26/18 A3019 RMK A01 T02600176  RH  060%=      5-min Rain = 0
KAD1 150158Z 14006KT 26/18 A3019 RMK A01 T02600175  RH  059%=      5-min Rain = 0
KAD1 150159Z 14006KT 26/17 A3019 RMK A01 T02600174  RH  059%=      5-min Rain = 0
KAD1 150200Z 14006KT 26/17 A3019 RMK A01 T02590172  RH  059%=      5-min Rain = 0
KAD1 150201Z 14006KT 26/17 A3019 RMK A01 T02590170  RH  058%=      5-min Rain = 0
KAD1 150202Z 14006KT 26/17 A3019 RMK A01 T02600169  RH  057%=      5-min Rain = 0
KAD1 150203Z 14006KT 26/17 A3019 RMK A01 T02600171  RH  058%=      5-min Rain = 0
KAD1 150204Z 14006KT 26/17 A3019 RMK A01 T02600172  RH  058%=      5-min Rain = 0
KAD1 150205Z 14006KT 26/17 A3019 RMK A01 T02590171  RH  058%=      5-min Rain = 0
KAD1 150206Z 14006KT 26/17 A3019 RMK A01 T02580170  RH  058%=      5-min Rain = 0
KAD1 150207Z 14006KT 26/17 A302 RMK A01 T02580169  RH  058%=      5-min Rain = 0
KAD1 150208Z 14006KT 26/17 A302 RMK A01 T02590169  RH  058%=      5-min Rain = 0
KAD1 150209Z 14006KT 26/17 A302 RMK A01 T02590168  RH  057%=      5-min Rain = 0
KAD1 150210Z 14006KT 26/17 A302 RMK A01 T02580167  RH  057%=      5-min Rain = 0
KAD1 150211Z 14006KT 26/17 A302 RMK A01 T02580169  RH  058%=      5-min Rain = 0
KAD1 150212Z 14006KT 26/17 A302 RMK A01 T02570168  RH  058%=      5-min Rain = 0
KAD1 150213Z 14007KT 26/17 A302 RMK A01 T02560168  RH  058%=      5-min Rain = 0
KAD1 150214Z 15007KT 26/17 A302 RMK A01 T02560168  RH  058%=      5-min Rain = 0
KAD1 150215Z 15007KT 26/17 A302 RMK A01 T02550169  RH  059%=      5-min Rain = 0
KAD1 150216Z 14007KT 26/17 A302 RMK A01 T02550168  RH  059%=      5-min Rain = 0
KAD1 150217Z 14008KT 26/17 A302 RMK A01 T02550168  RH  059%=      5-min Rain = 0
KAD1 150218Z 14008KT 25/16 A302 RMK A01 T02540164  RH  057%=      5-min Rain = 0
KAD1 150219Z 15007KT 25/16 A302 RMK A01 T02540164  RH  057%=      5-min Rain = 0
KAD1 150220Z 14008KT 25/16 A302 RMK A01 T02540162  RH  057%=      5-min Rain = 0
KAD1 150221Z 14008KT 26/16 A302 RMK A01 T02550162  RH  057%=      5-min Rain = 0
KAD1 150222Z 14008KT 26/16 A3019 RMK A01 T02550162  RH  056%=      5-min Rain = 0
KAD1 150223Z 14008KT 26/16 A3019 RMK A01 T02560163  RH  057%=      5-min Rain = 0
KAD1 150224Z 14008KT 26/16 A3019 RMK A01 T02550162  RH  056%=      5-min Rain = 0
KAD1 150225Z 14008KT 26/16 A3019 RMK A01 T02550161  RH  056%=      5-min Rain = 0
KAD1 150226Z 14008KT 26/16 A3019 RMK A01 T02550161  RH  056%=      5-min Rain = 0
KAD1 150227Z 14008KT 26/16 A3019 RMK A01 T02550161  RH  056%=      5-min Rain = 0
KAD1 150228Z 15008KT 26/16 A3019 RMK A01 T02550161  RH  056%=      5-min Rain = 0
KAD1 150229Z 15008KT 26/16 A3019 RMK A01 T02550161  RH  056%=      5-min Rain = 0
KAD1 150230Z 15008KT 26/16 A3019 RMK A01 T02560162  RH  056%=      5-min Rain = 0
KAD1 150231Z 15008KT 26/16 A3019 RMK A01 T02550162  RH  056%=      5-min Rain = 0
KAD1 150232Z 15008KT 25/16 A3019 RMK A01 T02540161  RH  056%=      5-min Rain = 0
KAD1 150233Z 15009KT 26/16 A3019 RMK A01 T02550160  RH  056%=      5-min Rain = 0
KAD1 150234Z 14009KT 25/16 A3019 RMK A01 T02540159  RH  056%=      5-min Rain = 0
KAD1 150235Z 14009KT 25/16 A3019 RMK A01 T02540159  RH  055%=      5-min Rain = 0
KAD1 150236Z 14008KT 25/16 A3019 RMK A01 T02540158  RH  055%=      5-min Rain = 0
KAD1 150237Z 14008KT 25/16 A3019 RMK A01 T02540159  RH  055%=      5-min Rain = 0
KAD1 150238Z 14008KT 25/16 A3019 RMK A01 T02540159  RH  055%=      5-min Rain = 0
KAD1 150239Z 14008KT 25/16 A3019 RMK A01 T02540159  RH  055%=      5-min Rain = 0
KAD1 150240Z 14008KT 25/16 A3019 RMK A01 T02540159  RH  056%=      5-min Rain = 0
KAD1 150241Z 14009KT 25/16 A3019 RMK A01 T02540160  RH  056%=      5-min Rain = 0
KAD1 150242Z 14009KT 25/16 A3019 RMK A01 T02540160  RH  056%=      5-min Rain = 0
KAD1 150243Z 14009KT 25/16 A3019 RMK A01 T02540158  RH  055%=      5-min Rain = 0
KAD1 150244Z 14009KT 25/16 A3019 RMK A01 T02540158  RH  055%=      5-min Rain = 0
KAD1 150245Z 14009KT 25/16 A302 RMK A01 T02540158  RH  055%=      5-min Rain = 0
KAD1 150246Z 15008KT 25/16 A302 RMK A01 T02540158  RH  055%=      5-min Rain = 0
KAD1 150247Z 15008KT 25/16 A302 RMK A01 T02540158  RH  055%=      5-min Rain = 0
KAD1 150248Z 14008KT 25/16 A302 RMK A01 T02530158  RH  056%=      5-min Rain = 0
KAD1 150249Z 14007KT 25/16 A302 RMK A01 T02530159  RH  056%=      5-min Rain = 0
KAD1 150250Z 15007KT 25/16 A302 RMK A01 T02520160  RH  057%=      5-min Rain = 0
KAD1 150251Z 14007KT 25/16 A302 RMK A01 T02510159  RH  057%=      5-min Rain = 0
KAD1 150252Z 14007KT 25/16 A302 RMK A01 T02500160  RH  057%=      5-min Rain = 0
KAD1 150253Z 15007KT 25/16 A302 RMK A01 T02490160  RH  057%=      5-min Rain = 0
KAD1 150254Z 15007KT 25/16 A302 RMK A01 T02490159  RH  058%=      5-min Rain = 0
KAD1 150255Z 14008KT 25/16 A302 RMK A01 T02480158  RH  057%=      5-min Rain = 0
KAD1 150256Z 14008KT 25/16 A302 RMK A01 T02480157  RH  057%=      5-min Rain = 0
KAD1 150257Z 14008KT 25/16 A302 RMK A01 T02480157  RH  057%=      5-min Rain = 0
KAD1 150258Z 14008KT 25/16 A302 RMK A01 T02490157  RH  057%=      5-min Rain = 0
KAD1 150259Z 14008KT 25/16 A302 RMK A01 T02490156  RH  056%=      5-min Rain = 0
KAD1 150300Z 15008KT 25/16 A302 RMK A01 T02490155  RH  056%=      5-min Rain = 0
KAD1 150301Z 15008KT 25/16 A302 RMK A01 T02490155  RH  056%=      5-min Rain = 0
KAD1 150302Z 15009KT 25/16 A3021 RMK A01 T02490155  RH  056%=      5-min Rain = 0
KAD1 150303Z 15009KT 25/16 A3021 RMK A01 T02500155  RH  056%=      5-min Rain = 0
KAD1 150304Z 15009KT 25/16 A3021 RMK A01 T02500155  RH  056%=      5-min Rain = 0
KAD1 150305Z 15009KT 25/16 A3021 RMK A01 T02500155  RH  055%=      5-min Rain = 0
KAD1 150306Z 14009KT 25/15 A3021 RMK A01 T02500154  RH  055%=      5-min Rain = 0
KAD1 150307Z 14008KT 25/15 A3021 RMK A01 T02500153  RH  055%=      5-min Rain = 0
KAD1 150308Z 14008KT 25/15 A3021 RMK A01 T02500153  RH  055%=      5-min Rain = 0
KAD1 150309Z 14008KT 25/15 A3021 RMK A01 T02500153  RH  055%=      5-min Rain = 0
KAD1 150310Z 14008KT 25/15 A3021 RMK A01 T02500153  RH  055%=      5-min Rain = 0
KAD1 150311Z 14008KT 25/15 A3021 RMK A01 T02500153  RH  055%=      5-min Rain = 0
KAD1 150312Z 14008KT 25/15 A3021 RMK A01 T02500154  RH  055%=      5-min Rain = 0
KAD1 150313Z 14008KT 25/15 A3021 RMK A01 T02500153  RH  055%=      5-min Rain = 0
KAD1 150314Z 14008KT 25/15 A3021 RMK A01 T02500153  RH  055%=      5-min Rain = 0
KAD1 150315Z 14008KT 25/15 A3021 RMK A01 T02500152  RH  054%=      5-min Rain = 0
KAD1 150316Z 14008KT 25/15 A3021 RMK A01 T02500153  RH  055%=      5-min Rain = 0
KAD1 150317Z 14008KT 25/15 A3021 RMK A01 T02500153  RH  055%=      5-min Rain = 0
KAD1 150318Z 14008KT 25/15 A3021 RMK A01 T02500153  RH  055%=      5-min Rain = 0
KAD1 150319Z 14008KT 25/15 A3021 RMK A01 T02500153  RH  055%=      5-min Rain = 0
KAD1 150320Z 14008KT 25/15 A3021 RMK A01 T02500154  RH  055%=      5-min Rain = 0
KAD1 150321Z 14009KT 25/15 A3021 RMK A01 T02490154  RH  055%=      5-min Rain = 0
KAD1 150322Z 14009KT 25/15 A3021 RMK A01 T02490153  RH  055%=      5-min Rain = 0
KAD1 150323Z 14009KT 25/15 A3021 RMK A01 T02490153  RH  055%=      5-min Rain = 0
KAD1 150324Z 14009KT 25/15 A3021 RMK A01 T02490152  RH  054%=      5-min Rain = 0
KAD1 150325Z 15009KT 25/15 A3021 RMK A01 T02500151  RH  054%=      5-min Rain = 0
KAD1 150326Z 15010KT 25/15 A3021 RMK A01 T02500151  RH  054%=      5-min Rain = 0
KAD1 150327Z 15010KT 25/15 A3021 RMK A01 T02500150  RH  054%=      5-min Rain = 0
KAD1 150328Z 15009KT 25/15 A3021 RMK A01 T02500150  RH  054%=      5-min Rain = 0
KAD1 150329Z 15009KT 25/15 A3021 RMK A01 T02500151  RH  054%=      5-min Rain = 0
KAD1 150330Z 15009KT 25/15 A3021 RMK A01 T02500150  RH  054%=      5-min Rain = 0
KAD1 150331Z 15009KT 25/15 A3021 RMK A01 T02500150  RH  054%=      5-min Rain = 0
KAD1 150332Z 15009KT 25/15 A3021 RMK A01 T02500150  RH  054%=      5-min Rain = 0
KAD1 150333Z 15009KT 25/15 A3021 RMK A01 T02500151  RH  054%=      5-min Rain = 0
KAD1 150334Z 15008KT 25/15 A3021 RMK A01 T02510151  RH  054%=      5-min Rain = 0
KAD1 150335Z 15008KT 25/15 A3021 RMK A01 T02500151  RH  054%=      5-min Rain = 0
KAD1 150336Z 15009KT 25/15 A3021 RMK A01 T02500151  RH  054%=      5-min Rain = 0
KAD1 150337Z 14009KT 25/15 A3021 RMK A01 T02500151  RH  054%=      5-min Rain = 0
KAD1 150338Z 15009KT 25/15 A3021 RMK A01 T02490151  RH  054%=      5-min Rain = 0
KAD1 150339Z 14009KT 25/15 A3022 RMK A01 T02500151  RH  054%=      5-min Rain = 0
KAD1 150340Z 14009KT 25/15 A3022 RMK A01 T02490152  RH  055%=      5-min Rain = 0
KAD1 150341Z 14010KT 25/15 A3021 RMK A01 T02490152  RH  055%=      5-min Rain = 0
KAD1 150342Z 14010KT 25/15 A3021 RMK A01 T02490152  RH  055%=      5-min Rain = 0
KAD1 150343Z 15009KT 25/15 A3021 RMK A01 T02490151  RH  055%=      5-min Rain = 0
KAD1 150344Z 14009KT 25/15 A3021 RMK A01 T02490151  RH  054%=      5-min Rain = 0
KAD1 150345Z 15010KT 25/15 A3021 RMK A01 T02480151  RH  054%=      5-min Rain = 0
KAD1 150346Z 15009KT 25/15 A3021 RMK A01 T02490150  RH  054%=      5-min Rain = 0
KAD1 150347Z 15009KT 25/15 A3021 RMK A01 T02490151  RH  054%=      5-min Rain = 0
KAD1 150348Z 15009KT 25/15 A3021 RMK A01 T02490151  RH  054%=      5-min Rain = 0
KAD1 150349Z 15009KT 25/15 A3021 RMK A01 T02490152  RH  055%=      5-min Rain = 0
KAD1 150350Z 15009KT 25/15 A3021 RMK A01 T02490152  RH  055%=      5-min Rain = 0
KAD1 150351Z 15009KT 25/15 A3021 RMK A01 T02490151  RH  055%=      5-min Rain = 0
KAD1 150352Z 15010KT 25/15 A3021 RMK A01 T02490152  RH  055%=      5-min Rain = 0
KAD1 150353Z 15010KT 25/15 A3021 RMK A01 T02490151  RH  055%=      5-min Rain = 0
KAD1 150354Z 15010KT 25/15 A3021 RMK A01 T02490151  RH  054%=      5-min Rain = 0
KAD1 150355Z 15010KT 25/15 A3021 RMK A01 T02490150  RH  054%=      5-min Rain = 0
KAD1 150356Z 15010KT 25/15 A3021 RMK A01 T02500150  RH  054%=      5-min Rain = 0
KAD1 150357Z 15011KT 25/15 A3021 RMK A01 T02510151  RH  054%=      5-min Rain = 0
KAD1 150358Z 15011KT 25/15 A3022 RMK A01 T02510151  RH  054%=      5-min Rain = 0
KAD1 150359Z 14011KT 25/15 A3022 RMK A01 T02510151  RH  054%=      5-min Rain = 0
KAD1 150400Z 14011KT 25/15 A3022 RMK A01 T02500152  RH  054%=      5-min Rain = 0
KAD1 150401Z 14011KT 25/15 A3022 RMK A01 T02500152  RH  054%=      5-min Rain = 0
KAD1 150402Z 14011KT 25/15 A3022 RMK A01 T02500151  RH  054%=      5-min Rain = 0
KAD1 150403Z 14012KT 25/15 A3022 RMK A01 T02490150  RH  054%=      5-min Rain = 0
KAD1 150404Z 14011KT 25/15 A3022 RMK A01 T02490151  RH  054%=      5-min Rain = 0
KAD1 150405Z 14011KT 25/15 A3022 RMK A01 T02490152  RH  055%=      5-min Rain = 0
KAD1 150406Z 14011KT 25/15 A3022 RMK A01 T02490152  RH  055%=      5-min Rain = 0
KAD1 150407Z 14010KT 25/15 A3021 RMK A01 T02480151  RH  055%=      5-min Rain = 0
KAD1 150408Z 14010KT 25/15 A3021 RMK A01 T02480153  RH  056%=      5-min Rain = 0
KAD1 150409Z 14010KT 25/15 A3021 RMK A01 T02460153  RH  056%=      5-min Rain = 0
KAD1 150410Z 14010KT 25/15 A3021 RMK A01 T02460152  RH  056%=      5-min Rain = 0
KAD1 150411Z 14011KT 25/15 A3021 RMK A01 T02460152  RH  056%=      5-min Rain = 0
KAD1 150412Z 14011KT 25/15 A3021 RMK A01 T02460151  RH  056%=      5-min Rain = 0
KAD1 150413Z 14011KT 25/15 A3021 RMK A01 T02460152  RH  056%=      5-min Rain = 0
KAD1 150414Z 14011KT 25/15 A3021 RMK A01 T02460151  RH  056%=      5-min Rain = 0
KAD1 150415Z 14011KT 25/15 A3021 RMK A01 T02460152  RH  056%=      5-min Rain = 0
KAD1 150416Z 14010KT 25/15 A3021 RMK A01 T02460151  RH  056%=      5-min Rain = 0
KAD1 150417Z 14011KT 25/15 A3021 RMK A01 T02450152  RH  056%=      5-min Rain = 0
KAD1 150418Z 14011KT 25/15 A3021 RMK A01 T02450152  RH  056%=      5-min Rain = 0
KAD1 150419Z 14011KT 25/15 A3021 RMK A01 T02450152  RH  056%=      5-min Rain = 0
KAD1 150420Z 14011KT 25/15 A3021 RMK A01 T02450152  RH  056%=      5-min Rain = 0
KAD1 150421Z 14011KT 25/15 A3021 RMK A01 T02450153  RH  057%=      5-min Rain = 0
KAD1 150422Z 14011KT 24/15 A3021 RMK A01 T02440153  RH  057%=      5-min Rain = 0
KAD1 150423Z 14011KT 24/15 A3021 RMK A01 T02440153  RH  057%=      5-min Rain = 0
KAD1 150424Z 13011KT 24/15 A3021 RMK A01 T02440152  RH  057%=      5-min Rain = 0
KAD1 150425Z 13011KT 24/15 A3021 RMK A01 T02440153  RH  056%=      5-min Rain = 0
KAD1 150426Z 13012KT 24/15 A3021 RMK A01 T02440153  RH  057%=      5-min Rain = 0
KAD1 150427Z 13011KT 24/15 A3021 RMK A01 T02440152  RH  057%=      5-min Rain = 0
KAD1 150428Z 13011KT 24/15 A3021 RMK A01 T02440153  RH  057%=      5-min Rain = 0
KAD1 150429Z 13011KT 24/15 A3021 RMK A01 T02430152  RH  057%=      5-min Rain = 0
KAD1 150430Z 13010KT 24/15 A3021 RMK A01 T02430152  RH  057%=      5-min Rain = 0
KAD1 150431Z 13011KT 24/15 A3021 RMK A01 T02440151  RH  056%=      5-min Rain = 0
KAD1 150432Z 14012KT 24/15 A3021 RMK A01 T02440150  RH  056%=      5-min Rain = 0
KAD1 150433Z 14011KT 24/15 A3021 RMK A01 T02440149  RH  056%=      5-min Rain = 0
KAD1 150434Z 14012KT 24/15 A3021 RMK A01 T02430148  RH  055%=      5-min Rain = 0
KAD1 150435Z 14011KT 24/15 A3022 RMK A01 T02440148  RH  055%=      5-min Rain = 0
KAD1 150436Z 14012KT 24/15 A3022 RMK A01 T02440148  RH  055%=      5-min Rain = 0
KAD1 150437Z 14011KT 24/15 A3022 RMK A01 T02440147  RH  055%=      5-min Rain = 0
KAD1 150438Z 14010KT 24/15 A3021 RMK A01 T02440148  RH  055%=      5-min Rain = 0
KAD1 150439Z 14010KT 24/15 A3021 RMK A01 T02440149  RH  055%=      5-min Rain = 0
KAD1 150440Z 14010KT 24/15 A3021 RMK A01 T02430148  RH  055%=      5-min Rain = 0
KAD1 150441Z 14010KT 24/15 A3021 RMK A01 T02430148  RH  055%=      5-min Rain = 0
KAD1 150442Z 14011KT 24/15 A3021 RMK A01 T02430147  RH  055%=      5-min Rain = 0
KAD1 150443Z 14011KT 24/15 A3022 RMK A01 T02430147  RH  055%=      5-min Rain = 0
KAD1 150444Z 14012KT 24/15 A3022 RMK A01 T02420146  RH  055%=      5-min Rain = 0
KAD1 150445Z 14012KT 24/15 A3022 RMK A01 T02430145  RH  054%=      5-min Rain = 0
KAD1 150446Z 14012KT 24/15 A3022 RMK A01 T02430145  RH  054%=      5-min Rain = 0
KAD1 150447Z 14012KT 24/15 A3022 RMK A01 T02420145  RH  054%=      5-min Rain = 0
KAD1 150448Z 14012KT 24/14 A3022 RMK A01 T02420144  RH  054%=      5-min Rain = 0
KAD1 150449Z 14013KT 24/14 A3022 RMK A01 T02420144  RH  054%=      5-min Rain = 0
KAD1 150450Z 14014KT 24/14 A3022 RMK A01 T02430144  RH  054%=      5-min Rain = 0
KAD1 150451Z 14014KT 24/14 A3022 RMK A01 T02430144  RH  054%=      5-min Rain = 0
KAD1 150452Z 14013KT 24/14 A3022 RMK A01 T02430144  RH  054%=      5-min Rain = 0
KAD1 150453Z 14014KT 24/14 A3022 RMK A01 T02430144  RH  054%=      5-min Rain = 0
KAD1 150454Z 14014KT 24/14 A3022 RMK A01 T02430143  RH  053%=      5-min Rain = 0
KAD1 150455Z 15014KT 24/14 A3022 RMK A01 T02440142  RH  053%=      5-min Rain = 0
KAD1 150456Z 15014KT 25/14 A3022 RMK A01 T02450142  RH  053%=      5-min Rain = 0
KAD1 150457Z 15013KT 25/14 A3022 RMK A01 T02450143  RH  053%=      5-min Rain = 0
KAD1 150458Z 15013KT 25/14 A3022 RMK A01 T02450142  RH  053%=      5-min Rain = 0
KAD1 150459Z 14013KT 25/14 A3022 RMK A01 T02460142  RH  052%=      5-min Rain = 0

Page generated in 0.1214 seconds.